<?xml version="1.0" encoding="UTF-8" standalone="no" ?>
<gpx xmlns="http://www.topografix.com/GPX/1/1" xmlns:xsi="http://www.w3.org/2001/XMLSchema-instance" xsi:schemaLocation="http://www.topografix.com/GPX/1/1 http://www.topografix.com/GPX/1/1/gpx.xsd" version="1.1" creator="VisuGPX - https://www.visugpx.com">
  <metadata>
    <name>samedi 19 04 25</name>
  </metadata>
  <wpt lat="45.41555" lon="0.30443">
    <ele>122.1</ele>
    <name><![CDATA[Ravitaillement]]></name>
  </wpt>
  <wpt lat="45.41556" lon="0.30452">
    <ele>121.6</ele>
    <name><![CDATA[Ravitaillement]]></name>
  </wpt>
  <wpt lat="45.41555" lon="0.30455">
    <ele>121.7</ele>
    <name><![CDATA[Ravitaillement]]></name>
  </wpt>
  <trk>
    <name><![CDATA[samedi 65km]]></name>
    <extensions>
      <line xmlns="http://www.topografix.com/GPX/gpx_style/0/2">
        <color>0000FF</color>
        <width>5</width>
          <extensions>
            <sens>1</sens>
          </extensions>
      </line>
    </extensions>
    <trkseg>
      <trkpt lat="45.24966" lon="0.33704">
        <ele>72</ele>
        <time>2025-04-11T09:03:14Z</time>
      </trkpt>
      <trkpt lat="45.24985" lon="0.337">
        <ele>72</ele>
        <time>2025-04-11T09:03:17Z</time>
      </trkpt>
      <trkpt lat="45.25002" lon="0.33697">
        <ele>71</ele>
        <time>2025-04-11T09:03:20Z</time>
      </trkpt>
      <trkpt lat="45.25016" lon="0.33694">
        <ele>71</ele>
        <time>2025-04-11T09:03:23Z</time>
      </trkpt>
      <trkpt lat="45.2503" lon="0.33691">
        <ele>71</ele>
        <time>2025-04-11T09:03:26Z</time>
      </trkpt>
      <trkpt lat="45.25043" lon="0.33689">
        <ele>71</ele>
        <time>2025-04-11T09:03:28Z</time>
      </trkpt>
      <trkpt lat="45.25053" lon="0.33687">
        <ele>71</ele>
        <time>2025-04-11T09:03:30Z</time>
      </trkpt>
      <trkpt lat="45.25077" lon="0.33682">
        <ele>70</ele>
        <time>2025-04-11T09:03:34Z</time>
      </trkpt>
      <trkpt lat="45.25074" lon="0.33623">
        <ele>71</ele>
        <time>2025-04-11T09:03:41Z</time>
      </trkpt>
      <trkpt lat="45.25074" lon="0.33609">
        <ele>72</ele>
        <time>2025-04-11T09:03:43Z</time>
      </trkpt>
      <trkpt lat="45.25076" lon="0.33593">
        <ele>72</ele>
        <time>2025-04-11T09:03:45Z</time>
      </trkpt>
      <trkpt lat="45.25061" lon="0.3359">
        <ele>73</ele>
        <time>2025-04-11T09:03:48Z</time>
      </trkpt>
      <trkpt lat="45.25039" lon="0.33585">
        <ele>74</ele>
        <time>2025-04-11T09:03:52Z</time>
      </trkpt>
      <trkpt lat="45.25015" lon="0.33577">
        <ele>75</ele>
        <time>2025-04-11T09:03:56Z</time>
      </trkpt>
      <trkpt lat="45.24975" lon="0.33559">
        <ele>77</ele>
        <time>2025-04-11T09:04:04Z</time>
      </trkpt>
      <trkpt lat="45.24956" lon="0.33552">
        <ele>78</ele>
        <time>2025-04-11T09:04:07Z</time>
      </trkpt>
      <trkpt lat="45.24946" lon="0.33549">
        <ele>78</ele>
        <time>2025-04-11T09:04:09Z</time>
      </trkpt>
      <trkpt lat="45.24978" lon="0.33464">
        <ele>83</ele>
        <time>2025-04-11T09:04:21Z</time>
      </trkpt>
      <trkpt lat="45.24995" lon="0.33417">
        <ele>86</ele>
        <time>2025-04-11T09:04:28Z</time>
      </trkpt>
      <trkpt lat="45.24999" lon="0.33407">
        <ele>87</ele>
        <time>2025-04-11T09:04:29Z</time>
      </trkpt>
      <trkpt lat="45.25004" lon="0.33398">
        <ele>87</ele>
        <time>2025-04-11T09:04:31Z</time>
      </trkpt>
      <trkpt lat="45.25009" lon="0.33391">
        <ele>88</ele>
        <time>2025-04-11T09:04:32Z</time>
      </trkpt>
      <trkpt lat="45.25018" lon="0.33382">
        <ele>89</ele>
        <time>2025-04-11T09:04:34Z</time>
      </trkpt>
      <trkpt lat="45.25032" lon="0.33373">
        <ele>89</ele>
        <time>2025-04-11T09:04:36Z</time>
      </trkpt>
      <trkpt lat="45.25104" lon="0.33344">
        <ele>92</ele>
        <time>2025-04-11T09:04:50Z</time>
      </trkpt>
      <trkpt lat="45.25152" lon="0.33321">
        <ele>93</ele>
        <time>2025-04-11T09:04:59Z</time>
      </trkpt>
      <trkpt lat="45.25172" lon="0.33306">
        <ele>95</ele>
        <time>2025-04-11T09:05:03Z</time>
      </trkpt>
      <trkpt lat="45.25188" lon="0.33291">
        <ele>95</ele>
        <time>2025-04-11T09:05:06Z</time>
      </trkpt>
      <trkpt lat="45.25198" lon="0.33274">
        <ele>96</ele>
        <time>2025-04-11T09:05:09Z</time>
      </trkpt>
      <trkpt lat="45.25191" lon="0.3327">
        <ele>97</ele>
        <time>2025-04-11T09:05:10Z</time>
      </trkpt>
      <trkpt lat="45.25198" lon="0.33274">
        <ele>96</ele>
        <time>2025-04-11T09:05:12Z</time>
      </trkpt>
      <trkpt lat="45.25206" lon="0.33258">
        <ele>97</ele>
        <time>2025-04-11T09:05:14Z</time>
      </trkpt>
      <trkpt lat="45.25213" lon="0.33237">
        <ele>98</ele>
        <time>2025-04-11T09:05:17Z</time>
      </trkpt>
      <trkpt lat="45.25221" lon="0.33185">
        <ele>99</ele>
        <time>2025-04-11T09:05:24Z</time>
      </trkpt>
      <trkpt lat="45.25224" lon="0.3315">
        <ele>100</ele>
        <time>2025-04-11T09:05:28Z</time>
      </trkpt>
      <trkpt lat="45.25223" lon="0.33088">
        <ele>100</ele>
        <time>2025-04-11T09:05:36Z</time>
      </trkpt>
      <trkpt lat="45.25219" lon="0.33059">
        <ele>100</ele>
        <time>2025-04-11T09:05:40Z</time>
      </trkpt>
      <trkpt lat="45.25214" lon="0.3303">
        <ele>100</ele>
        <time>2025-04-11T09:05:43Z</time>
      </trkpt>
      <trkpt lat="45.25209" lon="0.33009">
        <ele>100</ele>
        <time>2025-04-11T09:05:46Z</time>
      </trkpt>
      <trkpt lat="45.25181" lon="0.32912">
        <ele>100</ele>
        <time>2025-04-11T09:05:59Z</time>
      </trkpt>
      <trkpt lat="45.25165" lon="0.32854">
        <ele>98</ele>
        <time>2025-04-11T09:06:07Z</time>
      </trkpt>
      <trkpt lat="45.25162" lon="0.32836">
        <ele>97</ele>
        <time>2025-04-11T09:06:09Z</time>
      </trkpt>
      <trkpt lat="45.25161" lon="0.32819">
        <ele>97</ele>
        <time>2025-04-11T09:06:12Z</time>
      </trkpt>
      <trkpt lat="45.2516" lon="0.32798">
        <ele>98</ele>
        <time>2025-04-11T09:06:14Z</time>
      </trkpt>
      <trkpt lat="45.25162" lon="0.32774">
        <ele>98</ele>
        <time>2025-04-11T09:06:17Z</time>
      </trkpt>
      <trkpt lat="45.25179" lon="0.32683">
        <ele>98</ele>
        <time>2025-04-11T09:06:29Z</time>
      </trkpt>
      <trkpt lat="45.25184" lon="0.32657">
        <ele>97</ele>
        <time>2025-04-11T09:06:32Z</time>
      </trkpt>
      <trkpt lat="45.25186" lon="0.32633">
        <ele>95</ele>
        <time>2025-04-11T09:06:35Z</time>
      </trkpt>
      <trkpt lat="45.25187" lon="0.32613">
        <ele>93</ele>
        <time>2025-04-11T09:06:38Z</time>
      </trkpt>
      <trkpt lat="45.25186" lon="0.32594">
        <ele>92</ele>
        <time>2025-04-11T09:06:40Z</time>
      </trkpt>
      <trkpt lat="45.25183" lon="0.32575">
        <ele>91</ele>
        <time>2025-04-11T09:06:43Z</time>
      </trkpt>
      <trkpt lat="45.25178" lon="0.32559">
        <ele>90</ele>
        <time>2025-04-11T09:06:45Z</time>
      </trkpt>
      <trkpt lat="45.25172" lon="0.32545">
        <ele>89</ele>
        <time>2025-04-11T09:06:47Z</time>
      </trkpt>
      <trkpt lat="45.25161" lon="0.32532">
        <ele>89</ele>
        <time>2025-04-11T09:06:50Z</time>
      </trkpt>
      <trkpt lat="45.25113" lon="0.32485">
        <ele>88</ele>
        <time>2025-04-11T09:07:00Z</time>
      </trkpt>
      <trkpt lat="45.25098" lon="0.32469">
        <ele>88</ele>
        <time>2025-04-11T09:07:03Z</time>
      </trkpt>
      <trkpt lat="45.25089" lon="0.32456">
        <ele>88</ele>
        <time>2025-04-11T09:07:06Z</time>
      </trkpt>
      <trkpt lat="45.25085" lon="0.32439">
        <ele>87</ele>
        <time>2025-04-11T09:07:08Z</time>
      </trkpt>
      <trkpt lat="45.25083" lon="0.32425">
        <ele>87</ele>
        <time>2025-04-11T09:07:10Z</time>
      </trkpt>
      <trkpt lat="45.25085" lon="0.32411">
        <ele>87</ele>
        <time>2025-04-11T09:07:11Z</time>
      </trkpt>
      <trkpt lat="45.25089" lon="0.32396">
        <ele>88</ele>
        <time>2025-04-11T09:07:13Z</time>
      </trkpt>
      <trkpt lat="45.25099" lon="0.32382">
        <ele>89</ele>
        <time>2025-04-11T09:07:16Z</time>
      </trkpt>
      <trkpt lat="45.25113" lon="0.3237">
        <ele>89</ele>
        <time>2025-04-11T09:07:19Z</time>
      </trkpt>
      <trkpt lat="45.25154" lon="0.32324">
        <ele>90</ele>
        <time>2025-04-11T09:07:28Z</time>
      </trkpt>
      <trkpt lat="45.25163" lon="0.32311">
        <ele>91</ele>
        <time>2025-04-11T09:07:30Z</time>
      </trkpt>
      <trkpt lat="45.25169" lon="0.32298">
        <ele>91</ele>
        <time>2025-04-11T09:07:32Z</time>
      </trkpt>
      <trkpt lat="45.25174" lon="0.32285">
        <ele>92</ele>
        <time>2025-04-11T09:07:34Z</time>
      </trkpt>
      <trkpt lat="45.25187" lon="0.32223">
        <ele>94</ele>
        <time>2025-04-11T09:07:42Z</time>
      </trkpt>
      <trkpt lat="45.25194" lon="0.32198">
        <ele>94</ele>
        <time>2025-04-11T09:07:46Z</time>
      </trkpt>
      <trkpt lat="45.252" lon="0.32181">
        <ele>94</ele>
        <time>2025-04-11T09:07:48Z</time>
      </trkpt>
      <trkpt lat="45.25209" lon="0.32166">
        <ele>94</ele>
        <time>2025-04-11T09:07:50Z</time>
      </trkpt>
      <trkpt lat="45.25218" lon="0.32151">
        <ele>94</ele>
        <time>2025-04-11T09:07:53Z</time>
      </trkpt>
      <trkpt lat="45.25236" lon="0.32126">
        <ele>93</ele>
        <time>2025-04-11T09:07:57Z</time>
      </trkpt>
      <trkpt lat="45.25245" lon="0.32112">
        <ele>92</ele>
        <time>2025-04-11T09:08:00Z</time>
      </trkpt>
      <trkpt lat="45.25249" lon="0.32098">
        <ele>92</ele>
        <time>2025-04-11T09:08:02Z</time>
      </trkpt>
      <trkpt lat="45.25252" lon="0.32084">
        <ele>92</ele>
        <time>2025-04-11T09:08:04Z</time>
      </trkpt>
      <trkpt lat="45.25253" lon="0.32047">
        <ele>90</ele>
        <time>2025-04-11T09:08:08Z</time>
      </trkpt>
      <trkpt lat="45.25253" lon="0.32042">
        <ele>89</ele>
        <time>2025-04-11T09:08:09Z</time>
      </trkpt>
      <trkpt lat="45.25253" lon="0.32014">
        <ele>88</ele>
        <time>2025-04-11T09:08:12Z</time>
      </trkpt>
      <trkpt lat="45.25255" lon="0.31971">
        <ele>85</ele>
        <time>2025-04-11T09:08:18Z</time>
      </trkpt>
      <trkpt lat="45.25257" lon="0.3196">
        <ele>85</ele>
        <time>2025-04-11T09:08:19Z</time>
      </trkpt>
      <trkpt lat="45.25262" lon="0.3194">
        <ele>83</ele>
        <time>2025-04-11T09:08:22Z</time>
      </trkpt>
      <trkpt lat="45.25275" lon="0.31904">
        <ele>82</ele>
        <time>2025-04-11T09:08:27Z</time>
      </trkpt>
      <trkpt lat="45.2528" lon="0.31891">
        <ele>81</ele>
        <time>2025-04-11T09:08:29Z</time>
      </trkpt>
      <trkpt lat="45.25298" lon="0.31842">
        <ele>80</ele>
        <time>2025-04-11T09:08:36Z</time>
      </trkpt>
      <trkpt lat="45.25303" lon="0.31825">
        <ele>79</ele>
        <time>2025-04-11T09:08:38Z</time>
      </trkpt>
      <trkpt lat="45.25306" lon="0.31801">
        <ele>78</ele>
        <time>2025-04-11T09:08:41Z</time>
      </trkpt>
      <trkpt lat="45.25307" lon="0.31779">
        <ele>77</ele>
        <time>2025-04-11T09:08:44Z</time>
      </trkpt>
      <trkpt lat="45.25305" lon="0.31744">
        <ele>76</ele>
        <time>2025-04-11T09:08:48Z</time>
      </trkpt>
      <trkpt lat="45.25299" lon="0.3168">
        <ele>75</ele>
        <time>2025-04-11T09:08:56Z</time>
      </trkpt>
      <trkpt lat="45.25298" lon="0.31669">
        <ele>75</ele>
        <time>2025-04-11T09:08:58Z</time>
      </trkpt>
      <trkpt lat="45.25295" lon="0.31622">
        <ele>70</ele>
        <time>2025-04-11T09:09:04Z</time>
      </trkpt>
      <trkpt lat="45.25297" lon="0.31524">
        <ele>65</ele>
        <time>2025-04-11T09:09:16Z</time>
      </trkpt>
      <trkpt lat="45.25296" lon="0.31469">
        <ele>64</ele>
        <time>2025-04-11T09:09:23Z</time>
      </trkpt>
      <trkpt lat="45.25281" lon="0.31293">
        <ele>68</ele>
        <time>2025-04-11T09:09:45Z</time>
      </trkpt>
      <trkpt lat="45.25283" lon="0.31265">
        <ele>70</ele>
        <time>2025-04-11T09:09:48Z</time>
      </trkpt>
      <trkpt lat="45.2529" lon="0.31231">
        <ele>71</ele>
        <time>2025-04-11T09:09:53Z</time>
      </trkpt>
      <trkpt lat="45.253" lon="0.31205">
        <ele>73</ele>
        <time>2025-04-11T09:09:57Z</time>
      </trkpt>
      <trkpt lat="45.25303" lon="0.31197">
        <ele>73</ele>
        <time>2025-04-11T09:09:58Z</time>
      </trkpt>
      <trkpt lat="45.25338" lon="0.31129">
        <ele>74</ele>
        <time>2025-04-11T09:10:08Z</time>
      </trkpt>
      <trkpt lat="45.25397" lon="0.31025">
        <ele>74</ele>
        <time>2025-04-11T09:10:25Z</time>
      </trkpt>
      <trkpt lat="45.25589" lon="0.30685">
        <ele>68</ele>
        <time>2025-04-11T09:11:20Z</time>
      </trkpt>
      <trkpt lat="45.2562" lon="0.3063">
        <ele>68</ele>
        <time>2025-04-11T09:11:28Z</time>
      </trkpt>
      <trkpt lat="45.25652" lon="0.30574">
        <ele>67</ele>
        <time>2025-04-11T09:11:37Z</time>
      </trkpt>
      <trkpt lat="45.25677" lon="0.30527">
        <ele>67</ele>
        <time>2025-04-11T09:11:45Z</time>
      </trkpt>
      <trkpt lat="45.25792" lon="0.30278">
        <ele>67</ele>
        <time>2025-04-11T09:12:22Z</time>
      </trkpt>
      <trkpt lat="45.25806" lon="0.30244">
        <ele>67</ele>
        <time>2025-04-11T09:12:27Z</time>
      </trkpt>
      <trkpt lat="45.25834" lon="0.30159">
        <ele>66</ele>
        <time>2025-04-11T09:12:39Z</time>
      </trkpt>
      <trkpt lat="45.25863" lon="0.30094">
        <ele>67</ele>
        <time>2025-04-11T09:12:48Z</time>
      </trkpt>
      <trkpt lat="45.25876" lon="0.30059">
        <ele>67</ele>
        <time>2025-04-11T09:12:53Z</time>
      </trkpt>
      <trkpt lat="45.25886" lon="0.3002">
        <ele>67</ele>
        <time>2025-04-11T09:12:59Z</time>
      </trkpt>
      <trkpt lat="45.25939" lon="0.29747">
        <ele>66</ele>
        <time>2025-04-11T09:13:34Z</time>
      </trkpt>
      <trkpt lat="45.25942" lon="0.29722">
        <ele>66</ele>
        <time>2025-04-11T09:13:37Z</time>
      </trkpt>
      <trkpt lat="45.25949" lon="0.29634">
        <ele>69</ele>
        <time>2025-04-11T09:13:48Z</time>
      </trkpt>
      <trkpt lat="45.25954" lon="0.29603">
        <ele>71</ele>
        <time>2025-04-11T09:13:52Z</time>
      </trkpt>
      <trkpt lat="45.25958" lon="0.29581">
        <ele>72</ele>
        <time>2025-04-11T09:13:55Z</time>
      </trkpt>
      <trkpt lat="45.25963" lon="0.29564">
        <ele>72</ele>
        <time>2025-04-11T09:13:57Z</time>
      </trkpt>
      <trkpt lat="45.26027" lon="0.29341">
        <ele>76</ele>
        <time>2025-04-11T09:14:28Z</time>
      </trkpt>
      <trkpt lat="45.26073" lon="0.29174">
        <ele>75</ele>
        <time>2025-04-11T09:14:50Z</time>
      </trkpt>
      <trkpt lat="45.26083" lon="0.29141">
        <ele>73</ele>
        <time>2025-04-11T09:14:55Z</time>
      </trkpt>
      <trkpt lat="45.26097" lon="0.29106">
        <ele>72</ele>
        <time>2025-04-11T09:15:00Z</time>
      </trkpt>
      <trkpt lat="45.2612" lon="0.29058">
        <ele>69</ele>
        <time>2025-04-11T09:15:07Z</time>
      </trkpt>
      <trkpt lat="45.26128" lon="0.29038">
        <ele>68</ele>
        <time>2025-04-11T09:15:10Z</time>
      </trkpt>
      <trkpt lat="45.26132" lon="0.29022">
        <ele>67</ele>
        <time>2025-04-11T09:15:12Z</time>
      </trkpt>
      <trkpt lat="45.26134" lon="0.29006">
        <ele>67</ele>
        <time>2025-04-11T09:15:14Z</time>
      </trkpt>
      <trkpt lat="45.26135" lon="0.28992">
        <ele>67</ele>
        <time>2025-04-11T09:15:16Z</time>
      </trkpt>
      <trkpt lat="45.26131" lon="0.28959">
        <ele>66</ele>
        <time>2025-04-11T09:15:20Z</time>
      </trkpt>
      <trkpt lat="45.26089" lon="0.28772">
        <ele>67</ele>
        <time>2025-04-11T09:15:44Z</time>
      </trkpt>
      <trkpt lat="45.26077" lon="0.28706">
        <ele>66</ele>
        <time>2025-04-11T09:15:53Z</time>
      </trkpt>
      <trkpt lat="45.26046" lon="0.28518">
        <ele>64</ele>
        <time>2025-04-11T09:16:17Z</time>
      </trkpt>
      <trkpt lat="45.2604" lon="0.28479">
        <ele>64</ele>
        <time>2025-04-11T09:16:22Z</time>
      </trkpt>
      <trkpt lat="45.26038" lon="0.28455">
        <ele>64</ele>
        <time>2025-04-11T09:16:25Z</time>
      </trkpt>
      <trkpt lat="45.26039" lon="0.28435">
        <ele>63</ele>
        <time>2025-04-11T09:16:28Z</time>
      </trkpt>
      <trkpt lat="45.26041" lon="0.28418">
        <ele>63</ele>
        <time>2025-04-11T09:16:30Z</time>
      </trkpt>
      <trkpt lat="45.26046" lon="0.28402">
        <ele>63</ele>
        <time>2025-04-11T09:16:32Z</time>
      </trkpt>
      <trkpt lat="45.26053" lon="0.28386">
        <ele>63</ele>
        <time>2025-04-11T09:16:34Z</time>
      </trkpt>
      <trkpt lat="45.2606" lon="0.28372">
        <ele>63</ele>
        <time>2025-04-11T09:16:37Z</time>
      </trkpt>
      <trkpt lat="45.26111" lon="0.28281">
        <ele>62</ele>
        <time>2025-04-11T09:16:51Z</time>
      </trkpt>
      <trkpt lat="45.26177" lon="0.28165">
        <ele>60</ele>
        <time>2025-04-11T09:17:10Z</time>
      </trkpt>
      <trkpt lat="45.26192" lon="0.28135">
        <ele>60</ele>
        <time>2025-04-11T09:17:14Z</time>
      </trkpt>
      <trkpt lat="45.26205" lon="0.28098">
        <ele>60</ele>
        <time>2025-04-11T09:17:20Z</time>
      </trkpt>
      <trkpt lat="45.26245" lon="0.27989">
        <ele>63</ele>
        <time>2025-04-11T09:17:35Z</time>
      </trkpt>
      <trkpt lat="45.26317" lon="0.27799">
        <ele>64</ele>
        <time>2025-04-11T09:18:02Z</time>
      </trkpt>
      <trkpt lat="45.26331" lon="0.27763">
        <ele>63</ele>
        <time>2025-04-11T09:18:07Z</time>
      </trkpt>
      <trkpt lat="45.26344" lon="0.27733">
        <ele>62</ele>
        <time>2025-04-11T09:18:12Z</time>
      </trkpt>
      <trkpt lat="45.26358" lon="0.27709">
        <ele>63</ele>
        <time>2025-04-11T09:18:16Z</time>
      </trkpt>
      <trkpt lat="45.26437" lon="0.27587">
        <ele>66</ele>
        <time>2025-04-11T09:18:36Z</time>
      </trkpt>
      <trkpt lat="45.2645" lon="0.27563">
        <ele>66</ele>
        <time>2025-04-11T09:18:40Z</time>
      </trkpt>
      <trkpt lat="45.26458" lon="0.27543">
        <ele>67</ele>
        <time>2025-04-11T09:18:43Z</time>
      </trkpt>
      <trkpt lat="45.26466" lon="0.27521">
        <ele>68</ele>
        <time>2025-04-11T09:18:46Z</time>
      </trkpt>
      <trkpt lat="45.2647" lon="0.27503">
        <ele>69</ele>
        <time>2025-04-11T09:18:48Z</time>
      </trkpt>
      <trkpt lat="45.26543" lon="0.27205">
        <ele>70</ele>
        <time>2025-04-11T09:19:28Z</time>
      </trkpt>
      <trkpt lat="45.26553" lon="0.27169">
        <ele>71</ele>
        <time>2025-04-11T09:19:33Z</time>
      </trkpt>
      <trkpt lat="45.26572" lon="0.27118">
        <ele>71</ele>
        <time>2025-04-11T09:19:40Z</time>
      </trkpt>
      <trkpt lat="45.26591" lon="0.27075">
        <ele>72</ele>
        <time>2025-04-11T09:19:46Z</time>
      </trkpt>
      <trkpt lat="45.26673" lon="0.26939">
        <ele>72</ele>
        <time>2025-04-11T09:20:09Z</time>
      </trkpt>
      <trkpt lat="45.26782" lon="0.26755">
        <ele>76</ele>
        <time>2025-04-11T09:20:39Z</time>
      </trkpt>
      <trkpt lat="45.26794" lon="0.26729">
        <ele>76</ele>
        <time>2025-04-11T09:20:43Z</time>
      </trkpt>
      <trkpt lat="45.26807" lon="0.26699">
        <ele>75</ele>
        <time>2025-04-11T09:20:47Z</time>
      </trkpt>
      <trkpt lat="45.26819" lon="0.26663">
        <ele>75</ele>
        <time>2025-04-11T09:20:52Z</time>
      </trkpt>
      <trkpt lat="45.26833" lon="0.26617">
        <ele>75</ele>
        <time>2025-04-11T09:20:58Z</time>
      </trkpt>
      <trkpt lat="45.26849" lon="0.26564">
        <ele>75</ele>
        <time>2025-04-11T09:21:06Z</time>
      </trkpt>
      <trkpt lat="45.2686" lon="0.26519">
        <ele>74</ele>
        <time>2025-04-11T09:21:12Z</time>
      </trkpt>
      <trkpt lat="45.26875" lon="0.26444">
        <ele>73</ele>
        <time>2025-04-11T09:21:21Z</time>
      </trkpt>
      <trkpt lat="45.26882" lon="0.26414">
        <ele>72</ele>
        <time>2025-04-11T09:21:25Z</time>
      </trkpt>
      <trkpt lat="45.26889" lon="0.26388">
        <ele>72</ele>
        <time>2025-04-11T09:21:29Z</time>
      </trkpt>
      <trkpt lat="45.26901" lon="0.26355">
        <ele>72</ele>
        <time>2025-04-11T09:21:34Z</time>
      </trkpt>
      <trkpt lat="45.26908" lon="0.26337">
        <ele>73</ele>
        <time>2025-04-11T09:21:36Z</time>
      </trkpt>
      <trkpt lat="45.26925" lon="0.26297">
        <ele>75</ele>
        <time>2025-04-11T09:21:42Z</time>
      </trkpt>
      <trkpt lat="45.26942" lon="0.26237">
        <ele>77</ele>
        <time>2025-04-11T09:21:50Z</time>
      </trkpt>
      <trkpt lat="45.26948" lon="0.26214">
        <ele>76</ele>
        <time>2025-04-11T09:21:53Z</time>
      </trkpt>
      <trkpt lat="45.2695" lon="0.26189">
        <ele>75</ele>
        <time>2025-04-11T09:21:56Z</time>
      </trkpt>
      <trkpt lat="45.26953" lon="0.2608">
        <ele>75</ele>
        <time>2025-04-11T09:22:10Z</time>
      </trkpt>
      <trkpt lat="45.26955" lon="0.2606">
        <ele>76</ele>
        <time>2025-04-11T09:22:12Z</time>
      </trkpt>
      <trkpt lat="45.2696" lon="0.26033">
        <ele>76</ele>
        <time>2025-04-11T09:22:16Z</time>
      </trkpt>
      <trkpt lat="45.26967" lon="0.26006">
        <ele>77</ele>
        <time>2025-04-11T09:22:20Z</time>
      </trkpt>
      <trkpt lat="45.26976" lon="0.25981">
        <ele>78</ele>
        <time>2025-04-11T09:22:23Z</time>
      </trkpt>
      <trkpt lat="45.26988" lon="0.25959">
        <ele>79</ele>
        <time>2025-04-11T09:22:27Z</time>
      </trkpt>
      <trkpt lat="45.27073" lon="0.25842">
        <ele>80</ele>
        <time>2025-04-11T09:22:48Z</time>
      </trkpt>
      <trkpt lat="45.27086" lon="0.25826">
        <ele>80</ele>
        <time>2025-04-11T09:22:51Z</time>
      </trkpt>
      <trkpt lat="45.27097" lon="0.25807">
        <ele>80</ele>
        <time>2025-04-11T09:22:54Z</time>
      </trkpt>
      <trkpt lat="45.27101" lon="0.25799">
        <ele>80</ele>
        <time>2025-04-11T09:22:55Z</time>
      </trkpt>
      <trkpt lat="45.27105" lon="0.25788">
        <ele>80</ele>
        <time>2025-04-11T09:22:57Z</time>
      </trkpt>
      <trkpt lat="45.27108" lon="0.25775">
        <ele>80</ele>
        <time>2025-04-11T09:22:58Z</time>
      </trkpt>
      <trkpt lat="45.27109" lon="0.25766">
        <ele>80</ele>
        <time>2025-04-11T09:22:59Z</time>
      </trkpt>
      <trkpt lat="45.27111" lon="0.25731">
        <ele>80</ele>
        <time>2025-04-11T09:23:04Z</time>
      </trkpt>
      <trkpt lat="45.27112" lon="0.25724">
        <ele>80</ele>
        <time>2025-04-11T09:23:05Z</time>
      </trkpt>
      <trkpt lat="45.27117" lon="0.25707">
        <ele>80</ele>
        <time>2025-04-11T09:23:07Z</time>
      </trkpt>
      <trkpt lat="45.27136" lon="0.25665">
        <ele>80</ele>
        <time>2025-04-11T09:23:13Z</time>
      </trkpt>
      <trkpt lat="45.27153" lon="0.25631">
        <ele>78</ele>
        <time>2025-04-11T09:23:18Z</time>
      </trkpt>
      <trkpt lat="45.27181" lon="0.25573">
        <ele>74</ele>
        <time>2025-04-11T09:23:27Z</time>
      </trkpt>
      <trkpt lat="45.27184" lon="0.25568">
        <ele>74</ele>
        <time>2025-04-11T09:23:28Z</time>
      </trkpt>
      <trkpt lat="45.2719" lon="0.25557">
        <ele>74</ele>
        <time>2025-04-11T09:23:30Z</time>
      </trkpt>
      <trkpt lat="45.27198" lon="0.25544">
        <ele>74</ele>
        <time>2025-04-11T09:23:32Z</time>
      </trkpt>
      <trkpt lat="45.2721" lon="0.25533">
        <ele>75</ele>
        <time>2025-04-11T09:23:35Z</time>
      </trkpt>
      <trkpt lat="45.27224" lon="0.25524">
        <ele>75</ele>
        <time>2025-04-11T09:23:37Z</time>
      </trkpt>
      <trkpt lat="45.27259" lon="0.2551">
        <ele>75</ele>
        <time>2025-04-11T09:23:44Z</time>
      </trkpt>
      <trkpt lat="45.27297" lon="0.25494">
        <ele>73</ele>
        <time>2025-04-11T09:23:51Z</time>
      </trkpt>
      <trkpt lat="45.27316" lon="0.25483">
        <ele>72</ele>
        <time>2025-04-11T09:23:54Z</time>
      </trkpt>
      <trkpt lat="45.27328" lon="0.25474">
        <ele>72</ele>
        <time>2025-04-11T09:23:57Z</time>
      </trkpt>
      <trkpt lat="45.2734" lon="0.25463">
        <ele>71</ele>
        <time>2025-04-11T09:23:59Z</time>
      </trkpt>
      <trkpt lat="45.2735" lon="0.25448">
        <ele>71</ele>
        <time>2025-04-11T09:24:02Z</time>
      </trkpt>
      <trkpt lat="45.27368" lon="0.2541">
        <ele>72</ele>
        <time>2025-04-11T09:24:08Z</time>
      </trkpt>
      <trkpt lat="45.27382" lon="0.25375">
        <ele>73</ele>
        <time>2025-04-11T09:24:13Z</time>
      </trkpt>
      <trkpt lat="45.27405" lon="0.25309">
        <ele>76</ele>
        <time>2025-04-11T09:24:22Z</time>
      </trkpt>
      <trkpt lat="45.27412" lon="0.2528">
        <ele>77</ele>
        <time>2025-04-11T09:24:26Z</time>
      </trkpt>
      <trkpt lat="45.27424" lon="0.25217">
        <ele>79</ele>
        <time>2025-04-11T09:24:34Z</time>
      </trkpt>
      <trkpt lat="45.27426" lon="0.25182">
        <ele>80</ele>
        <time>2025-04-11T09:24:38Z</time>
      </trkpt>
      <trkpt lat="45.27423" lon="0.25145">
        <ele>80</ele>
        <time>2025-04-11T09:24:43Z</time>
      </trkpt>
      <trkpt lat="45.2742" lon="0.25127">
        <ele>81</ele>
        <time>2025-04-11T09:24:45Z</time>
      </trkpt>
      <trkpt lat="45.27413" lon="0.25103">
        <ele>81</ele>
        <time>2025-04-11T09:24:49Z</time>
      </trkpt>
      <trkpt lat="45.27405" lon="0.25079">
        <ele>81</ele>
        <time>2025-04-11T09:24:52Z</time>
      </trkpt>
      <trkpt lat="45.2736" lon="0.24974">
        <ele>80</ele>
        <time>2025-04-11T09:25:07Z</time>
      </trkpt>
      <trkpt lat="45.2735" lon="0.24944">
        <ele>79</ele>
        <time>2025-04-11T09:25:12Z</time>
      </trkpt>
      <trkpt lat="45.27345" lon="0.24921">
        <ele>78</ele>
        <time>2025-04-11T09:25:15Z</time>
      </trkpt>
      <trkpt lat="45.2734" lon="0.24896">
        <ele>79</ele>
        <time>2025-04-11T09:25:18Z</time>
      </trkpt>
      <trkpt lat="45.27338" lon="0.24866">
        <ele>80</ele>
        <time>2025-04-11T09:25:22Z</time>
      </trkpt>
      <trkpt lat="45.27337" lon="0.24786">
        <ele>81</ele>
        <time>2025-04-11T09:25:32Z</time>
      </trkpt>
      <trkpt lat="45.27334" lon="0.24679">
        <ele>82</ele>
        <time>2025-04-11T09:25:45Z</time>
      </trkpt>
      <trkpt lat="45.27332" lon="0.24648">
        <ele>82</ele>
        <time>2025-04-11T09:25:49Z</time>
      </trkpt>
      <trkpt lat="45.27328" lon="0.2462">
        <ele>82</ele>
        <time>2025-04-11T09:25:52Z</time>
      </trkpt>
      <trkpt lat="45.27313" lon="0.24539">
        <ele>82</ele>
        <time>2025-04-11T09:26:03Z</time>
      </trkpt>
      <trkpt lat="45.27298" lon="0.24471">
        <ele>82</ele>
        <time>2025-04-11T09:26:12Z</time>
      </trkpt>
      <trkpt lat="45.27295" lon="0.24444">
        <ele>82</ele>
        <time>2025-04-11T09:26:15Z</time>
      </trkpt>
      <trkpt lat="45.27294" lon="0.24418">
        <ele>82</ele>
        <time>2025-04-11T09:26:19Z</time>
      </trkpt>
      <trkpt lat="45.273" lon="0.24357">
        <ele>81</ele>
        <time>2025-04-11T09:26:26Z</time>
      </trkpt>
      <trkpt lat="45.27301" lon="0.24331">
        <ele>80</ele>
        <time>2025-04-11T09:26:30Z</time>
      </trkpt>
      <trkpt lat="45.27298" lon="0.2431">
        <ele>79</ele>
        <time>2025-04-11T09:26:32Z</time>
      </trkpt>
      <trkpt lat="45.27292" lon="0.24292">
        <ele>77</ele>
        <time>2025-04-11T09:26:35Z</time>
      </trkpt>
      <trkpt lat="45.27287" lon="0.24282">
        <ele>76</ele>
        <time>2025-04-11T09:26:36Z</time>
      </trkpt>
      <trkpt lat="45.27281" lon="0.24271">
        <ele>74</ele>
        <time>2025-04-11T09:26:38Z</time>
      </trkpt>
      <trkpt lat="45.27273" lon="0.24265">
        <ele>73</ele>
        <time>2025-04-11T09:26:40Z</time>
      </trkpt>
      <trkpt lat="45.27265" lon="0.24261">
        <ele>72</ele>
        <time>2025-04-11T09:26:41Z</time>
      </trkpt>
      <trkpt lat="45.27251" lon="0.24259">
        <ele>70</ele>
        <time>2025-04-11T09:26:44Z</time>
      </trkpt>
      <trkpt lat="45.272" lon="0.24267">
        <ele>68</ele>
        <time>2025-04-11T09:26:53Z</time>
      </trkpt>
      <trkpt lat="45.2719" lon="0.24267">
        <ele>67</ele>
        <time>2025-04-11T09:26:55Z</time>
      </trkpt>
      <trkpt lat="45.27178" lon="0.24264">
        <ele>66</ele>
        <time>2025-04-11T09:26:57Z</time>
      </trkpt>
      <trkpt lat="45.27169" lon="0.24257">
        <ele>64</ele>
        <time>2025-04-11T09:26:59Z</time>
      </trkpt>
      <trkpt lat="45.27161" lon="0.24246">
        <ele>63</ele>
        <time>2025-04-11T09:27:00Z</time>
      </trkpt>
      <trkpt lat="45.27146" lon="0.24223">
        <ele>64</ele>
        <time>2025-04-11T09:27:04Z</time>
      </trkpt>
      <trkpt lat="45.27137" lon="0.24207">
        <ele>65</ele>
        <time>2025-04-11T09:27:07Z</time>
      </trkpt>
      <trkpt lat="45.27122" lon="0.24181">
        <ele>66</ele>
        <time>2025-04-11T09:27:11Z</time>
      </trkpt>
      <trkpt lat="45.27109" lon="0.24163">
        <ele>68</ele>
        <time>2025-04-11T09:27:14Z</time>
      </trkpt>
      <trkpt lat="45.27092" lon="0.24149">
        <ele>69</ele>
        <time>2025-04-11T09:27:18Z</time>
      </trkpt>
      <trkpt lat="45.26999" lon="0.24099">
        <ele>74</ele>
        <time>2025-04-11T09:27:36Z</time>
      </trkpt>
      <trkpt lat="45.26977" lon="0.24082">
        <ele>75</ele>
        <time>2025-04-11T09:27:40Z</time>
      </trkpt>
      <trkpt lat="45.26964" lon="0.24068">
        <ele>76</ele>
        <time>2025-04-11T09:27:43Z</time>
      </trkpt>
      <trkpt lat="45.26948" lon="0.24044">
        <ele>78</ele>
        <time>2025-04-11T09:27:47Z</time>
      </trkpt>
      <trkpt lat="45.26854" lon="0.23901">
        <ele>86</ele>
        <time>2025-04-11T09:28:12Z</time>
      </trkpt>
      <trkpt lat="45.26837" lon="0.23866">
        <ele>87</ele>
        <time>2025-04-11T09:28:17Z</time>
      </trkpt>
      <trkpt lat="45.26829" lon="0.23842">
        <ele>88</ele>
        <time>2025-04-11T09:28:20Z</time>
      </trkpt>
      <trkpt lat="45.26813" lon="0.23757">
        <ele>89</ele>
        <time>2025-04-11T09:28:31Z</time>
      </trkpt>
      <trkpt lat="45.2676" lon="0.23459">
        <ele>89</ele>
        <time>2025-04-11T09:29:10Z</time>
      </trkpt>
      <trkpt lat="45.26741" lon="0.23352">
        <ele>89</ele>
        <time>2025-04-11T09:29:24Z</time>
      </trkpt>
      <trkpt lat="45.26735" lon="0.2333">
        <ele>88</ele>
        <time>2025-04-11T09:29:27Z</time>
      </trkpt>
      <trkpt lat="45.26729" lon="0.23313">
        <ele>87</ele>
        <time>2025-04-11T09:29:29Z</time>
      </trkpt>
      <trkpt lat="45.26721" lon="0.23297">
        <ele>87</ele>
        <time>2025-04-11T09:29:31Z</time>
      </trkpt>
      <trkpt lat="45.2671" lon="0.23281">
        <ele>86</ele>
        <time>2025-04-11T09:29:34Z</time>
      </trkpt>
      <trkpt lat="45.2666" lon="0.23225">
        <ele>85</ele>
        <time>2025-04-11T09:29:46Z</time>
      </trkpt>
      <trkpt lat="45.26648" lon="0.23209">
        <ele>85</ele>
        <time>2025-04-11T09:29:48Z</time>
      </trkpt>
      <trkpt lat="45.26638" lon="0.23191">
        <ele>85</ele>
        <time>2025-04-11T09:29:51Z</time>
      </trkpt>
      <trkpt lat="45.26583" lon="0.23062">
        <ele>86</ele>
        <time>2025-04-11T09:30:10Z</time>
      </trkpt>
      <trkpt lat="45.26574" lon="0.23041">
        <ele>86</ele>
        <time>2025-04-11T09:30:13Z</time>
      </trkpt>
      <trkpt lat="45.26565" lon="0.23024">
        <ele>86</ele>
        <time>2025-04-11T09:30:16Z</time>
      </trkpt>
      <trkpt lat="45.26558" lon="0.23012">
        <ele>86</ele>
        <time>2025-04-11T09:30:18Z</time>
      </trkpt>
      <trkpt lat="45.26549" lon="0.22999">
        <ele>86</ele>
        <time>2025-04-11T09:30:20Z</time>
      </trkpt>
      <trkpt lat="45.2654" lon="0.2299">
        <ele>86</ele>
        <time>2025-04-11T09:30:22Z</time>
      </trkpt>
      <trkpt lat="45.26533" lon="0.22984">
        <ele>86</ele>
        <time>2025-04-11T09:30:24Z</time>
      </trkpt>
      <trkpt lat="45.26508" lon="0.22976">
        <ele>86</ele>
        <time>2025-04-11T09:30:28Z</time>
      </trkpt>
      <trkpt lat="45.26493" lon="0.22974">
        <ele>85</ele>
        <time>2025-04-11T09:30:31Z</time>
      </trkpt>
      <trkpt lat="45.26475" lon="0.22969">
        <ele>84</ele>
        <time>2025-04-11T09:30:34Z</time>
      </trkpt>
      <trkpt lat="45.26461" lon="0.22963">
        <ele>83</ele>
        <time>2025-04-11T09:30:37Z</time>
      </trkpt>
      <trkpt lat="45.26438" lon="0.22948">
        <ele>81</ele>
        <time>2025-04-11T09:30:41Z</time>
      </trkpt>
      <trkpt lat="45.26387" lon="0.22911">
        <ele>78</ele>
        <time>2025-04-11T09:30:51Z</time>
      </trkpt>
      <trkpt lat="45.26361" lon="0.22889">
        <ele>78</ele>
        <time>2025-04-11T09:30:57Z</time>
      </trkpt>
      <trkpt lat="45.26343" lon="0.22872">
        <ele>77</ele>
        <time>2025-04-11T09:31:01Z</time>
      </trkpt>
      <trkpt lat="45.26329" lon="0.22856">
        <ele>77</ele>
        <time>2025-04-11T09:31:04Z</time>
      </trkpt>
      <trkpt lat="45.26317" lon="0.2284">
        <ele>76</ele>
        <time>2025-04-11T09:31:07Z</time>
      </trkpt>
      <trkpt lat="45.26306" lon="0.22819">
        <ele>77</ele>
        <time>2025-04-11T09:31:10Z</time>
      </trkpt>
      <trkpt lat="45.26297" lon="0.22798">
        <ele>78</ele>
        <time>2025-04-11T09:31:13Z</time>
      </trkpt>
      <trkpt lat="45.26289" lon="0.22776">
        <ele>79</ele>
        <time>2025-04-11T09:31:16Z</time>
      </trkpt>
      <trkpt lat="45.26282" lon="0.22746">
        <ele>81</ele>
        <time>2025-04-11T09:31:20Z</time>
      </trkpt>
      <trkpt lat="45.26279" lon="0.22721">
        <ele>83</ele>
        <time>2025-04-11T09:31:23Z</time>
      </trkpt>
      <trkpt lat="45.26278" lon="0.22701">
        <ele>85</ele>
        <time>2025-04-11T09:31:26Z</time>
      </trkpt>
      <trkpt lat="45.26279" lon="0.22684">
        <ele>87</ele>
        <time>2025-04-11T09:31:28Z</time>
      </trkpt>
      <trkpt lat="45.26283" lon="0.22665">
        <ele>88</ele>
        <time>2025-04-11T09:31:30Z</time>
      </trkpt>
      <trkpt lat="45.26313" lon="0.22581">
        <ele>88</ele>
        <time>2025-04-11T09:31:42Z</time>
      </trkpt>
      <trkpt lat="45.26321" lon="0.22556">
        <ele>88</ele>
        <time>2025-04-11T09:31:46Z</time>
      </trkpt>
      <trkpt lat="45.26326" lon="0.2253">
        <ele>88</ele>
        <time>2025-04-11T09:31:49Z</time>
      </trkpt>
      <trkpt lat="45.26329" lon="0.22506">
        <ele>89</ele>
        <time>2025-04-11T09:31:52Z</time>
      </trkpt>
      <trkpt lat="45.26331" lon="0.2249">
        <ele>89</ele>
        <time>2025-04-11T09:31:54Z</time>
      </trkpt>
      <trkpt lat="45.26332" lon="0.22473">
        <ele>90</ele>
        <time>2025-04-11T09:31:56Z</time>
      </trkpt>
      <trkpt lat="45.2633" lon="0.22457">
        <ele>90</ele>
        <time>2025-04-11T09:31:58Z</time>
      </trkpt>
      <trkpt lat="45.26326" lon="0.22438">
        <ele>90</ele>
        <time>2025-04-11T09:32:01Z</time>
      </trkpt>
      <trkpt lat="45.2632" lon="0.22422">
        <ele>91</ele>
        <time>2025-04-11T09:32:03Z</time>
      </trkpt>
      <trkpt lat="45.26312" lon="0.22406">
        <ele>91</ele>
        <time>2025-04-11T09:32:06Z</time>
      </trkpt>
      <trkpt lat="45.26294" lon="0.22379">
        <ele>90</ele>
        <time>2025-04-11T09:32:10Z</time>
      </trkpt>
      <trkpt lat="45.26286" lon="0.22363">
        <ele>89</ele>
        <time>2025-04-11T09:32:13Z</time>
      </trkpt>
      <trkpt lat="45.26281" lon="0.2235">
        <ele>89</ele>
        <time>2025-04-11T09:32:15Z</time>
      </trkpt>
      <trkpt lat="45.26277" lon="0.22333">
        <ele>89</ele>
        <time>2025-04-11T09:32:17Z</time>
      </trkpt>
      <trkpt lat="45.26275" lon="0.2232">
        <ele>88</ele>
        <time>2025-04-11T09:32:18Z</time>
      </trkpt>
      <trkpt lat="45.26275" lon="0.22307">
        <ele>88</ele>
        <time>2025-04-11T09:32:20Z</time>
      </trkpt>
      <trkpt lat="45.26276" lon="0.22291">
        <ele>87</ele>
        <time>2025-04-11T09:32:22Z</time>
      </trkpt>
      <trkpt lat="45.26278" lon="0.22275">
        <ele>87</ele>
        <time>2025-04-11T09:32:24Z</time>
      </trkpt>
      <trkpt lat="45.26283" lon="0.22258">
        <ele>86</ele>
        <time>2025-04-11T09:32:26Z</time>
      </trkpt>
      <trkpt lat="45.26297" lon="0.22219">
        <ele>86</ele>
        <time>2025-04-11T09:32:32Z</time>
      </trkpt>
      <trkpt lat="45.26303" lon="0.22197">
        <ele>86</ele>
        <time>2025-04-11T09:32:35Z</time>
      </trkpt>
      <trkpt lat="45.26306" lon="0.22178">
        <ele>86</ele>
        <time>2025-04-11T09:32:37Z</time>
      </trkpt>
      <trkpt lat="45.26307" lon="0.22159">
        <ele>85</ele>
        <time>2025-04-11T09:32:40Z</time>
      </trkpt>
      <trkpt lat="45.26305" lon="0.22139">
        <ele>85</ele>
        <time>2025-04-11T09:32:42Z</time>
      </trkpt>
      <trkpt lat="45.26298" lon="0.22117">
        <ele>84</ele>
        <time>2025-04-11T09:32:45Z</time>
      </trkpt>
      <trkpt lat="45.26259" lon="0.22029">
        <ele>78</ele>
        <time>2025-04-11T09:32:58Z</time>
      </trkpt>
      <trkpt lat="45.26247" lon="0.2199">
        <ele>77</ele>
        <time>2025-04-11T09:33:04Z</time>
      </trkpt>
      <trkpt lat="45.26243" lon="0.21967">
        <ele>77</ele>
        <time>2025-04-11T09:33:07Z</time>
      </trkpt>
      <trkpt lat="45.2624" lon="0.21927">
        <ele>76</ele>
        <time>2025-04-11T09:33:12Z</time>
      </trkpt>
      <trkpt lat="45.26242" lon="0.2189">
        <ele>76</ele>
        <time>2025-04-11T09:33:16Z</time>
      </trkpt>
      <trkpt lat="45.26247" lon="0.21808">
        <ele>75</ele>
        <time>2025-04-11T09:33:27Z</time>
      </trkpt>
      <trkpt lat="45.26247" lon="0.21769">
        <ele>75</ele>
        <time>2025-04-11T09:33:31Z</time>
      </trkpt>
      <trkpt lat="45.26243" lon="0.217">
        <ele>71</ele>
        <time>2025-04-11T09:33:40Z</time>
      </trkpt>
      <trkpt lat="45.26242" lon="0.21672">
        <ele>68</ele>
        <time>2025-04-11T09:33:44Z</time>
      </trkpt>
      <trkpt lat="45.26243" lon="0.21656">
        <ele>67</ele>
        <time>2025-04-11T09:33:46Z</time>
      </trkpt>
      <trkpt lat="45.26246" lon="0.21642">
        <ele>66</ele>
        <time>2025-04-11T09:33:47Z</time>
      </trkpt>
      <trkpt lat="45.26252" lon="0.21627">
        <ele>64</ele>
        <time>2025-04-11T09:33:50Z</time>
      </trkpt>
      <trkpt lat="45.26371" lon="0.21424">
        <ele>54</ele>
        <time>2025-04-11T09:34:23Z</time>
      </trkpt>
      <trkpt lat="45.26377" lon="0.21408">
        <ele>53</ele>
        <time>2025-04-11T09:34:25Z</time>
      </trkpt>
      <trkpt lat="45.2638" lon="0.21394">
        <ele>53</ele>
        <time>2025-04-11T09:34:27Z</time>
      </trkpt>
      <trkpt lat="45.26381" lon="0.21382">
        <ele>53</ele>
        <time>2025-04-11T09:34:28Z</time>
      </trkpt>
      <trkpt lat="45.26379" lon="0.21356">
        <ele>52</ele>
        <time>2025-04-11T09:34:32Z</time>
      </trkpt>
      <trkpt lat="45.26375" lon="0.21341">
        <ele>52</ele>
        <time>2025-04-11T09:34:34Z</time>
      </trkpt>
      <trkpt lat="45.26369" lon="0.21326">
        <ele>52</ele>
        <time>2025-04-11T09:34:36Z</time>
      </trkpt>
      <trkpt lat="45.26278" lon="0.21169">
        <ele>53</ele>
        <time>2025-04-11T09:35:01Z</time>
      </trkpt>
      <trkpt lat="45.26266" lon="0.21143">
        <ele>53</ele>
        <time>2025-04-11T09:35:05Z</time>
      </trkpt>
      <trkpt lat="45.26184" lon="0.20937">
        <ele>52</ele>
        <time>2025-04-11T09:35:35Z</time>
      </trkpt>
      <trkpt lat="45.2617" lon="0.20905">
        <ele>50</ele>
        <time>2025-04-11T09:35:39Z</time>
      </trkpt>
      <trkpt lat="45.26148" lon="0.20862">
        <ele>51</ele>
        <time>2025-04-11T09:35:46Z</time>
      </trkpt>
      <trkpt lat="45.26133" lon="0.20829">
        <ele>51</ele>
        <time>2025-04-11T09:35:51Z</time>
      </trkpt>
      <trkpt lat="45.26127" lon="0.20813">
        <ele>52</ele>
        <time>2025-04-11T09:35:53Z</time>
      </trkpt>
      <trkpt lat="45.26123" lon="0.208">
        <ele>52</ele>
        <time>2025-04-11T09:35:55Z</time>
      </trkpt>
      <trkpt lat="45.2612" lon="0.20786">
        <ele>53</ele>
        <time>2025-04-11T09:35:57Z</time>
      </trkpt>
      <trkpt lat="45.26117" lon="0.20764">
        <ele>54</ele>
        <time>2025-04-11T09:36:00Z</time>
      </trkpt>
      <trkpt lat="45.2612" lon="0.20786">
        <ele>53</ele>
        <time>2025-04-11T09:36:03Z</time>
      </trkpt>
      <trkpt lat="45.26123" lon="0.208">
        <ele>52</ele>
        <time>2025-04-11T09:36:04Z</time>
      </trkpt>
      <trkpt lat="45.26127" lon="0.20813">
        <ele>52</ele>
        <time>2025-04-11T09:36:06Z</time>
      </trkpt>
      <trkpt lat="45.26133" lon="0.20829">
        <ele>51</ele>
        <time>2025-04-11T09:36:08Z</time>
      </trkpt>
      <trkpt lat="45.26148" lon="0.20862">
        <ele>51</ele>
        <time>2025-04-11T09:36:13Z</time>
      </trkpt>
      <trkpt lat="45.26161" lon="0.20888">
        <ele>50</ele>
        <time>2025-04-11T09:36:17Z</time>
      </trkpt>
      <trkpt lat="45.26148" lon="0.20862">
        <ele>51</ele>
        <time>2025-04-11T09:36:21Z</time>
      </trkpt>
      <trkpt lat="45.26133" lon="0.20829">
        <ele>51</ele>
        <time>2025-04-11T09:36:26Z</time>
      </trkpt>
      <trkpt lat="45.26127" lon="0.20813">
        <ele>52</ele>
        <time>2025-04-11T09:36:29Z</time>
      </trkpt>
      <trkpt lat="45.26123" lon="0.208">
        <ele>52</ele>
        <time>2025-04-11T09:36:30Z</time>
      </trkpt>
      <trkpt lat="45.2612" lon="0.20786">
        <ele>53</ele>
        <time>2025-04-11T09:36:32Z</time>
      </trkpt>
      <trkpt lat="45.26117" lon="0.20766">
        <ele>54</ele>
        <time>2025-04-11T09:36:35Z</time>
      </trkpt>
      <trkpt lat="45.26116" lon="0.20709">
        <ele>54</ele>
        <time>2025-04-11T09:36:42Z</time>
      </trkpt>
      <trkpt lat="45.26113" lon="0.20691">
        <ele>54</ele>
        <time>2025-04-11T09:36:44Z</time>
      </trkpt>
      <trkpt lat="45.26109" lon="0.20673">
        <ele>54</ele>
        <time>2025-04-11T09:36:47Z</time>
      </trkpt>
      <trkpt lat="45.26101" lon="0.20648">
        <ele>54</ele>
        <time>2025-04-11T09:36:50Z</time>
      </trkpt>
      <trkpt lat="45.26062" lon="0.20554">
        <ele>53</ele>
        <time>2025-04-11T09:37:04Z</time>
      </trkpt>
      <trkpt lat="45.26046" lon="0.20519">
        <ele>52</ele>
        <time>2025-04-11T09:37:09Z</time>
      </trkpt>
      <trkpt lat="45.26035" lon="0.20499">
        <ele>51</ele>
        <time>2025-04-11T09:37:12Z</time>
      </trkpt>
      <trkpt lat="45.26011" lon="0.20462">
        <ele>51</ele>
        <time>2025-04-11T09:37:18Z</time>
      </trkpt>
      <trkpt lat="45.25972" lon="0.20406">
        <ele>50</ele>
        <time>2025-04-11T09:37:28Z</time>
      </trkpt>
      <trkpt lat="45.25959" lon="0.20379">
        <ele>49</ele>
        <time>2025-04-11T09:37:32Z</time>
      </trkpt>
      <trkpt lat="45.25955" lon="0.20367">
        <ele>49</ele>
        <time>2025-04-11T09:37:34Z</time>
      </trkpt>
      <trkpt lat="45.25953" lon="0.20352">
        <ele>48</ele>
        <time>2025-04-11T09:37:36Z</time>
      </trkpt>
      <trkpt lat="45.25951" lon="0.20323">
        <ele>47</ele>
        <time>2025-04-11T09:37:40Z</time>
      </trkpt>
      <trkpt lat="45.25952" lon="0.20255">
        <ele>48</ele>
        <time>2025-04-11T09:37:48Z</time>
      </trkpt>
      <trkpt lat="45.25953" lon="0.20207">
        <ele>50</ele>
        <time>2025-04-11T09:37:54Z</time>
      </trkpt>
      <trkpt lat="45.25956" lon="0.20071">
        <ele>53</ele>
        <time>2025-04-11T09:38:11Z</time>
      </trkpt>
      <trkpt lat="45.2596" lon="0.19914">
        <ele>51</ele>
        <time>2025-04-11T09:38:31Z</time>
      </trkpt>
      <trkpt lat="45.25961" lon="0.19882">
        <ele>51</ele>
        <time>2025-04-11T09:38:35Z</time>
      </trkpt>
      <trkpt lat="45.25969" lon="0.19836">
        <ele>51</ele>
        <time>2025-04-11T09:38:41Z</time>
      </trkpt>
      <trkpt lat="45.26003" lon="0.19699">
        <ele>49</ele>
        <time>2025-04-11T09:38:59Z</time>
      </trkpt>
      <trkpt lat="45.26014" lon="0.1964">
        <ele>49</ele>
        <time>2025-04-11T09:39:07Z</time>
      </trkpt>
      <trkpt lat="45.26017" lon="0.1961">
        <ele>49</ele>
        <time>2025-04-11T09:39:10Z</time>
      </trkpt>
      <trkpt lat="45.26035" lon="0.19388">
        <ele>49</ele>
        <time>2025-04-11T09:39:38Z</time>
      </trkpt>
      <trkpt lat="45.26038" lon="0.19353">
        <ele>49</ele>
        <time>2025-04-11T09:39:43Z</time>
      </trkpt>
      <trkpt lat="45.26035" lon="0.19333">
        <ele>49</ele>
        <time>2025-04-11T09:39:45Z</time>
      </trkpt>
      <trkpt lat="45.26047" lon="0.1932">
        <ele>49</ele>
        <time>2025-04-11T09:39:48Z</time>
      </trkpt>
      <trkpt lat="45.26063" lon="0.19292">
        <ele>49</ele>
        <time>2025-04-11T09:39:53Z</time>
      </trkpt>
      <trkpt lat="45.26105" lon="0.19224">
        <ele>48</ele>
        <time>2025-04-11T09:40:04Z</time>
      </trkpt>
      <trkpt lat="45.26114" lon="0.19208">
        <ele>48</ele>
        <time>2025-04-11T09:40:06Z</time>
      </trkpt>
      <trkpt lat="45.26125" lon="0.1918">
        <ele>48</ele>
        <time>2025-04-11T09:40:10Z</time>
      </trkpt>
      <trkpt lat="45.26169" lon="0.19051">
        <ele>48</ele>
        <time>2025-04-11T09:40:28Z</time>
      </trkpt>
      <trkpt lat="45.26189" lon="0.18993">
        <ele>48</ele>
        <time>2025-04-11T09:40:36Z</time>
      </trkpt>
      <trkpt lat="45.26201" lon="0.18967">
        <ele>48</ele>
        <time>2025-04-11T09:40:40Z</time>
      </trkpt>
      <trkpt lat="45.26229" lon="0.18916">
        <ele>47</ele>
        <time>2025-04-11T09:40:48Z</time>
      </trkpt>
      <trkpt lat="45.26259" lon="0.18867">
        <ele>46</ele>
        <time>2025-04-11T09:40:57Z</time>
      </trkpt>
      <trkpt lat="45.26292" lon="0.18817">
        <ele>44</ele>
        <time>2025-04-11T09:41:05Z</time>
      </trkpt>
      <trkpt lat="45.26403" lon="0.1866">
        <ele>45</ele>
        <time>2025-04-11T09:41:33Z</time>
      </trkpt>
      <trkpt lat="45.26437" lon="0.18615">
        <ele>46</ele>
        <time>2025-04-11T09:41:41Z</time>
      </trkpt>
      <trkpt lat="45.26468" lon="0.18578">
        <ele>46</ele>
        <time>2025-04-11T09:41:49Z</time>
      </trkpt>
      <trkpt lat="45.26499" lon="0.1863">
        <ele>46</ele>
        <time>2025-04-11T09:41:57Z</time>
      </trkpt>
      <trkpt lat="45.26544" lon="0.18718">
        <ele>45</ele>
        <time>2025-04-11T09:42:11Z</time>
      </trkpt>
      <trkpt lat="45.26572" lon="0.1877">
        <ele>43</ele>
        <time>2025-04-11T09:42:19Z</time>
      </trkpt>
      <trkpt lat="45.26656" lon="0.18926">
        <ele>43</ele>
        <time>2025-04-11T09:42:43Z</time>
      </trkpt>
      <trkpt lat="45.26755" lon="0.19117">
        <ele>44</ele>
        <time>2025-04-11T09:43:13Z</time>
      </trkpt>
      <trkpt lat="45.26776" lon="0.19154">
        <ele>44</ele>
        <time>2025-04-11T09:43:19Z</time>
      </trkpt>
      <trkpt lat="45.26805" lon="0.19209">
        <ele>44</ele>
        <time>2025-04-11T09:43:28Z</time>
      </trkpt>
      <trkpt lat="45.27012" lon="0.19597">
        <ele>46</ele>
        <time>2025-04-11T09:44:29Z</time>
      </trkpt>
      <trkpt lat="45.27273" lon="0.2009">
        <ele>48</ele>
        <time>2025-04-11T09:45:46Z</time>
      </trkpt>
      <trkpt lat="45.27319" lon="0.20191">
        <ele>49</ele>
        <time>2025-04-11T09:46:01Z</time>
      </trkpt>
      <trkpt lat="45.27325" lon="0.20201">
        <ele>49</ele>
        <time>2025-04-11T09:46:03Z</time>
      </trkpt>
      <trkpt lat="45.27301" lon="0.20273">
        <ele>50</ele>
        <time>2025-04-11T09:46:13Z</time>
      </trkpt>
      <trkpt lat="45.27283" lon="0.20293">
        <ele>50</ele>
        <time>2025-04-11T09:46:17Z</time>
      </trkpt>
      <trkpt lat="45.27264" lon="0.20307">
        <ele>50</ele>
        <time>2025-04-11T09:46:21Z</time>
      </trkpt>
      <trkpt lat="45.27236" lon="0.2033">
        <ele>50</ele>
        <time>2025-04-11T09:46:26Z</time>
      </trkpt>
      <trkpt lat="45.27225" lon="0.20344">
        <ele>49</ele>
        <time>2025-04-11T09:46:29Z</time>
      </trkpt>
      <trkpt lat="45.27142" lon="0.20453">
        <ele>48</ele>
        <time>2025-04-11T09:46:49Z</time>
      </trkpt>
      <trkpt lat="45.27112" lon="0.20516">
        <ele>48</ele>
        <time>2025-04-11T09:46:59Z</time>
      </trkpt>
      <trkpt lat="45.27092" lon="0.20538">
        <ele>48</ele>
        <time>2025-04-11T09:47:03Z</time>
      </trkpt>
      <trkpt lat="45.27078" lon="0.20555">
        <ele>48</ele>
        <time>2025-04-11T09:47:06Z</time>
      </trkpt>
      <trkpt lat="45.27066" lon="0.20571">
        <ele>48</ele>
        <time>2025-04-11T09:47:09Z</time>
      </trkpt>
      <trkpt lat="45.27061" lon="0.20585">
        <ele>49</ele>
        <time>2025-04-11T09:47:11Z</time>
      </trkpt>
      <trkpt lat="45.2707" lon="0.20591">
        <ele>48</ele>
        <time>2025-04-11T09:47:13Z</time>
      </trkpt>
      <trkpt lat="45.27152" lon="0.20651">
        <ele>48</ele>
        <time>2025-04-11T09:47:29Z</time>
      </trkpt>
      <trkpt lat="45.27258" lon="0.20737">
        <ele>48</ele>
        <time>2025-04-11T09:47:51Z</time>
      </trkpt>
      <trkpt lat="45.27294" lon="0.20755">
        <ele>49</ele>
        <time>2025-04-11T09:47:58Z</time>
      </trkpt>
      <trkpt lat="45.27326" lon="0.20765">
        <ele>49</ele>
        <time>2025-04-11T09:48:04Z</time>
      </trkpt>
      <trkpt lat="45.27518" lon="0.20711">
        <ele>51</ele>
        <time>2025-04-11T09:48:39Z</time>
      </trkpt>
      <trkpt lat="45.27652" lon="0.20676">
        <ele>52</ele>
        <time>2025-04-11T09:49:03Z</time>
      </trkpt>
      <trkpt lat="45.27745" lon="0.20658">
        <ele>55</ele>
        <time>2025-04-11T09:49:19Z</time>
      </trkpt>
      <trkpt lat="45.27785" lon="0.20666">
        <ele>56</ele>
        <time>2025-04-11T09:49:27Z</time>
      </trkpt>
      <trkpt lat="45.27817" lon="0.20683">
        <ele>56</ele>
        <time>2025-04-11T09:49:33Z</time>
      </trkpt>
      <trkpt lat="45.27847" lon="0.20717">
        <ele>58</ele>
        <time>2025-04-11T09:49:40Z</time>
      </trkpt>
      <trkpt lat="45.27874" lon="0.20761">
        <ele>59</ele>
        <time>2025-04-11T09:49:47Z</time>
      </trkpt>
      <trkpt lat="45.27954" lon="0.20902">
        <ele>59</ele>
        <time>2025-04-11T09:50:10Z</time>
      </trkpt>
      <trkpt lat="45.27996" lon="0.20975">
        <ele>56</ele>
        <time>2025-04-11T09:50:21Z</time>
      </trkpt>
      <trkpt lat="45.28019" lon="0.21007">
        <ele>56</ele>
        <time>2025-04-11T09:50:27Z</time>
      </trkpt>
      <trkpt lat="45.28035" lon="0.21018">
        <ele>56</ele>
        <time>2025-04-11T09:50:30Z</time>
      </trkpt>
      <trkpt lat="45.2804" lon="0.21021">
        <ele>57</ele>
        <time>2025-04-11T09:50:31Z</time>
      </trkpt>
      <trkpt lat="45.2805" lon="0.21024">
        <ele>57</ele>
        <time>2025-04-11T09:50:33Z</time>
      </trkpt>
      <trkpt lat="45.28063" lon="0.21027">
        <ele>57</ele>
        <time>2025-04-11T09:50:35Z</time>
      </trkpt>
      <trkpt lat="45.28072" lon="0.21031">
        <ele>57</ele>
        <time>2025-04-11T09:50:37Z</time>
      </trkpt>
      <trkpt lat="45.28101" lon="0.21043">
        <ele>58</ele>
        <time>2025-04-11T09:50:42Z</time>
      </trkpt>
      <trkpt lat="45.28172" lon="0.21068">
        <ele>59</ele>
        <time>2025-04-11T09:50:55Z</time>
      </trkpt>
      <trkpt lat="45.28232" lon="0.21092">
        <ele>58</ele>
        <time>2025-04-11T09:51:07Z</time>
      </trkpt>
      <trkpt lat="45.28425" lon="0.21197">
        <ele>57</ele>
        <time>2025-04-11T09:51:43Z</time>
      </trkpt>
      <trkpt lat="45.28488" lon="0.21233">
        <ele>58</ele>
        <time>2025-04-11T09:51:55Z</time>
      </trkpt>
      <trkpt lat="45.28501" lon="0.2124">
        <ele>58</ele>
        <time>2025-04-11T09:51:58Z</time>
      </trkpt>
      <trkpt lat="45.28546" lon="0.21274">
        <ele>59</ele>
        <time>2025-04-11T09:52:07Z</time>
      </trkpt>
      <trkpt lat="45.28564" lon="0.21281">
        <ele>59</ele>
        <time>2025-04-11T09:52:10Z</time>
      </trkpt>
      <trkpt lat="45.28587" lon="0.21268">
        <ele>59</ele>
        <time>2025-04-11T09:52:15Z</time>
      </trkpt>
      <trkpt lat="45.28611" lon="0.2127">
        <ele>58</ele>
        <time>2025-04-11T09:52:19Z</time>
      </trkpt>
      <trkpt lat="45.28669" lon="0.21278">
        <ele>54</ele>
        <time>2025-04-11T09:52:29Z</time>
      </trkpt>
      <trkpt lat="45.28717" lon="0.21287">
        <ele>54</ele>
        <time>2025-04-11T09:52:38Z</time>
      </trkpt>
      <trkpt lat="45.2872" lon="0.21365">
        <ele>54</ele>
        <time>2025-04-11T09:52:48Z</time>
      </trkpt>
      <trkpt lat="45.2872" lon="0.21388">
        <ele>54</ele>
        <time>2025-04-11T09:52:51Z</time>
      </trkpt>
      <trkpt lat="45.28724" lon="0.21414">
        <ele>55</ele>
        <time>2025-04-11T09:52:54Z</time>
      </trkpt>
      <trkpt lat="45.28729" lon="0.21434">
        <ele>54</ele>
        <time>2025-04-11T09:52:57Z</time>
      </trkpt>
      <trkpt lat="45.28739" lon="0.21454">
        <ele>53</ele>
        <time>2025-04-11T09:53:00Z</time>
      </trkpt>
      <trkpt lat="45.2875" lon="0.21471">
        <ele>53</ele>
        <time>2025-04-11T09:53:03Z</time>
      </trkpt>
      <trkpt lat="45.28925" lon="0.21642">
        <ele>54</ele>
        <time>2025-04-11T09:53:40Z</time>
      </trkpt>
      <trkpt lat="45.29077" lon="0.21798">
        <ele>55</ele>
        <time>2025-04-11T09:54:14Z</time>
      </trkpt>
      <trkpt lat="45.29106" lon="0.21831">
        <ele>55</ele>
        <time>2025-04-11T09:54:20Z</time>
      </trkpt>
      <trkpt lat="45.2917" lon="0.2192">
        <ele>55</ele>
        <time>2025-04-11T09:54:36Z</time>
      </trkpt>
      <trkpt lat="45.29256" lon="0.22053">
        <ele>59</ele>
        <time>2025-04-11T09:54:59Z</time>
      </trkpt>
      <trkpt lat="45.29297" lon="0.22127">
        <ele>58</ele>
        <time>2025-04-11T09:55:11Z</time>
      </trkpt>
      <trkpt lat="45.29411" lon="0.22352">
        <ele>56</ele>
        <time>2025-04-11T09:55:45Z</time>
      </trkpt>
      <trkpt lat="45.29465" lon="0.22423">
        <ele>53</ele>
        <time>2025-04-11T09:55:58Z</time>
      </trkpt>
      <trkpt lat="45.29509" lon="0.22473">
        <ele>51</ele>
        <time>2025-04-11T09:56:08Z</time>
      </trkpt>
      <trkpt lat="45.29624" lon="0.22612">
        <ele>48</ele>
        <time>2025-04-11T09:56:35Z</time>
      </trkpt>
      <trkpt lat="45.29632" lon="0.22623">
        <ele>49</ele>
        <time>2025-04-11T09:56:37Z</time>
      </trkpt>
      <trkpt lat="45.29646" lon="0.22639">
        <ele>49</ele>
        <time>2025-04-11T09:56:40Z</time>
      </trkpt>
      <trkpt lat="45.29654" lon="0.2265">
        <ele>49</ele>
        <time>2025-04-11T09:56:42Z</time>
      </trkpt>
      <trkpt lat="45.29666" lon="0.22664">
        <ele>49</ele>
        <time>2025-04-11T09:56:45Z</time>
      </trkpt>
      <trkpt lat="45.29678" lon="0.22674">
        <ele>49</ele>
        <time>2025-04-11T09:56:48Z</time>
      </trkpt>
      <trkpt lat="45.29687" lon="0.2268">
        <ele>49</ele>
        <time>2025-04-11T09:56:49Z</time>
      </trkpt>
      <trkpt lat="45.29697" lon="0.22685">
        <ele>50</ele>
        <time>2025-04-11T09:56:51Z</time>
      </trkpt>
      <trkpt lat="45.29706" lon="0.22687">
        <ele>50</ele>
        <time>2025-04-11T09:56:53Z</time>
      </trkpt>
      <trkpt lat="45.29715" lon="0.22687">
        <ele>50</ele>
        <time>2025-04-11T09:56:55Z</time>
      </trkpt>
      <trkpt lat="45.29736" lon="0.22685">
        <ele>51</ele>
        <time>2025-04-11T09:56:58Z</time>
      </trkpt>
      <trkpt lat="45.29847" lon="0.22656">
        <ele>51</ele>
        <time>2025-04-11T09:57:18Z</time>
      </trkpt>
      <trkpt lat="45.29865" lon="0.22655">
        <ele>51</ele>
        <time>2025-04-11T09:57:22Z</time>
      </trkpt>
      <trkpt lat="45.29878" lon="0.22658">
        <ele>51</ele>
        <time>2025-04-11T09:57:24Z</time>
      </trkpt>
      <trkpt lat="45.29888" lon="0.22662">
        <ele>51</ele>
        <time>2025-04-11T09:57:26Z</time>
      </trkpt>
      <trkpt lat="45.29904" lon="0.22672">
        <ele>52</ele>
        <time>2025-04-11T09:57:29Z</time>
      </trkpt>
      <trkpt lat="45.29914" lon="0.22681">
        <ele>52</ele>
        <time>2025-04-11T09:57:31Z</time>
      </trkpt>
      <trkpt lat="45.29923" lon="0.22693">
        <ele>54</ele>
        <time>2025-04-11T09:57:33Z</time>
      </trkpt>
      <trkpt lat="45.29932" lon="0.22706">
        <ele>55</ele>
        <time>2025-04-11T09:57:35Z</time>
      </trkpt>
      <trkpt lat="45.29937" lon="0.22717">
        <ele>55</ele>
        <time>2025-04-11T09:57:37Z</time>
      </trkpt>
      <trkpt lat="45.29945" lon="0.22735">
        <ele>57</ele>
        <time>2025-04-11T09:57:40Z</time>
      </trkpt>
      <trkpt lat="45.29985" lon="0.22867">
        <ele>62</ele>
        <time>2025-04-11T09:57:58Z</time>
      </trkpt>
      <trkpt lat="45.30008" lon="0.22939">
        <ele>63</ele>
        <time>2025-04-11T09:58:08Z</time>
      </trkpt>
      <trkpt lat="45.30022" lon="0.22976">
        <ele>64</ele>
        <time>2025-04-11T09:58:13Z</time>
      </trkpt>
      <trkpt lat="45.30039" lon="0.23016">
        <ele>65</ele>
        <time>2025-04-11T09:58:19Z</time>
      </trkpt>
      <trkpt lat="45.30133" lon="0.23213">
        <ele>71</ele>
        <time>2025-04-11T09:58:49Z</time>
      </trkpt>
      <trkpt lat="45.30157" lon="0.23258">
        <ele>73</ele>
        <time>2025-04-11T09:58:56Z</time>
      </trkpt>
      <trkpt lat="45.30283" lon="0.2352">
        <ele>82</ele>
        <time>2025-04-11T09:59:35Z</time>
      </trkpt>
      <trkpt lat="45.303" lon="0.23551">
        <ele>82</ele>
        <time>2025-04-11T09:59:40Z</time>
      </trkpt>
      <trkpt lat="45.30324" lon="0.23587">
        <ele>83</ele>
        <time>2025-04-11T09:59:46Z</time>
      </trkpt>
      <trkpt lat="45.30505" lon="0.23822">
        <ele>88</ele>
        <time>2025-04-11T10:00:30Z</time>
      </trkpt>
      <trkpt lat="45.30649" lon="0.24012">
        <ele>92</ele>
        <time>2025-04-11T10:01:05Z</time>
      </trkpt>
      <trkpt lat="45.30719" lon="0.24102">
        <ele>94</ele>
        <time>2025-04-11T10:01:22Z</time>
      </trkpt>
      <trkpt lat="45.30737" lon="0.24129">
        <ele>96</ele>
        <time>2025-04-11T10:01:26Z</time>
      </trkpt>
      <trkpt lat="45.30757" lon="0.24166">
        <ele>98</ele>
        <time>2025-04-11T10:01:32Z</time>
      </trkpt>
      <trkpt lat="45.30795" lon="0.24239">
        <ele>98</ele>
        <time>2025-04-11T10:01:44Z</time>
      </trkpt>
      <trkpt lat="45.30822" lon="0.2429">
        <ele>97</ele>
        <time>2025-04-11T10:01:52Z</time>
      </trkpt>
      <trkpt lat="45.30936" lon="0.24505">
        <ele>100</ele>
        <time>2025-04-11T10:02:25Z</time>
      </trkpt>
      <trkpt lat="45.30985" lon="0.24596">
        <ele>104</ele>
        <time>2025-04-11T10:02:40Z</time>
      </trkpt>
      <trkpt lat="45.31003" lon="0.24624">
        <ele>106</ele>
        <time>2025-04-11T10:02:44Z</time>
      </trkpt>
      <trkpt lat="45.31048" lon="0.24684">
        <ele>107</ele>
        <time>2025-04-11T10:02:55Z</time>
      </trkpt>
      <trkpt lat="45.31125" lon="0.24783">
        <ele>105</ele>
        <time>2025-04-11T10:03:14Z</time>
      </trkpt>
      <trkpt lat="45.31191" lon="0.2487">
        <ele>106</ele>
        <time>2025-04-11T10:03:30Z</time>
      </trkpt>
      <trkpt lat="45.31289" lon="0.24999">
        <ele>107</ele>
        <time>2025-04-11T10:03:54Z</time>
      </trkpt>
      <trkpt lat="45.31293" lon="0.25005">
        <ele>107</ele>
        <time>2025-04-11T10:03:55Z</time>
      </trkpt>
      <trkpt lat="45.3139" lon="0.24962">
        <ele>101</ele>
        <time>2025-04-11T10:04:13Z</time>
      </trkpt>
      <trkpt lat="45.31411" lon="0.24948">
        <ele>101</ele>
        <time>2025-04-11T10:04:17Z</time>
      </trkpt>
      <trkpt lat="45.31424" lon="0.24937">
        <ele>100</ele>
        <time>2025-04-11T10:04:20Z</time>
      </trkpt>
      <trkpt lat="45.31445" lon="0.24915">
        <ele>99</ele>
        <time>2025-04-11T10:04:24Z</time>
      </trkpt>
      <trkpt lat="45.31465" lon="0.24893">
        <ele>99</ele>
        <time>2025-04-11T10:04:29Z</time>
      </trkpt>
      <trkpt lat="45.31483" lon="0.24871">
        <ele>98</ele>
        <time>2025-04-11T10:04:33Z</time>
      </trkpt>
      <trkpt lat="45.31496" lon="0.24851">
        <ele>98</ele>
        <time>2025-04-11T10:04:36Z</time>
      </trkpt>
      <trkpt lat="45.31516" lon="0.24819">
        <ele>98</ele>
        <time>2025-04-11T10:04:42Z</time>
      </trkpt>
      <trkpt lat="45.31542" lon="0.24767">
        <ele>99</ele>
        <time>2025-04-11T10:04:50Z</time>
      </trkpt>
      <trkpt lat="45.31547" lon="0.24757">
        <ele>100</ele>
        <time>2025-04-11T10:04:51Z</time>
      </trkpt>
      <trkpt lat="45.31562" lon="0.24737">
        <ele>100</ele>
        <time>2025-04-11T10:04:55Z</time>
      </trkpt>
      <trkpt lat="45.31566" lon="0.24732">
        <ele>100</ele>
        <time>2025-04-11T10:04:56Z</time>
      </trkpt>
      <trkpt lat="45.31585" lon="0.24718">
        <ele>100</ele>
        <time>2025-04-11T10:05:00Z</time>
      </trkpt>
      <trkpt lat="45.31596" lon="0.24711">
        <ele>100</ele>
        <time>2025-04-11T10:05:02Z</time>
      </trkpt>
      <trkpt lat="45.31608" lon="0.24706">
        <ele>101</ele>
        <time>2025-04-11T10:05:04Z</time>
      </trkpt>
      <trkpt lat="45.31626" lon="0.24702">
        <ele>101</ele>
        <time>2025-04-11T10:05:07Z</time>
      </trkpt>
      <trkpt lat="45.31639" lon="0.24698">
        <ele>101</ele>
        <time>2025-04-11T10:05:10Z</time>
      </trkpt>
      <trkpt lat="45.31654" lon="0.24697">
        <ele>101</ele>
        <time>2025-04-11T10:05:12Z</time>
      </trkpt>
      <trkpt lat="45.31693" lon="0.24695">
        <ele>101</ele>
        <time>2025-04-11T10:05:19Z</time>
      </trkpt>
      <trkpt lat="45.31755" lon="0.24697">
        <ele>100</ele>
        <time>2025-04-11T10:05:30Z</time>
      </trkpt>
      <trkpt lat="45.31812" lon="0.24702">
        <ele>101</ele>
        <time>2025-04-11T10:05:40Z</time>
      </trkpt>
      <trkpt lat="45.31859" lon="0.24709">
        <ele>102</ele>
        <time>2025-04-11T10:05:49Z</time>
      </trkpt>
      <trkpt lat="45.31965" lon="0.24731">
        <ele>104</ele>
        <time>2025-04-11T10:06:08Z</time>
      </trkpt>
      <trkpt lat="45.31989" lon="0.24732">
        <ele>105</ele>
        <time>2025-04-11T10:06:12Z</time>
      </trkpt>
      <trkpt lat="45.3203" lon="0.24729">
        <ele>107</ele>
        <time>2025-04-11T10:06:20Z</time>
      </trkpt>
      <trkpt lat="45.32255" lon="0.24709">
        <ele>112</ele>
        <time>2025-04-11T10:07:00Z</time>
      </trkpt>
      <trkpt lat="45.32389" lon="0.24701">
        <ele>113</ele>
        <time>2025-04-11T10:07:23Z</time>
      </trkpt>
      <trkpt lat="45.3249" lon="0.24696">
        <ele>111</ele>
        <time>2025-04-11T10:07:41Z</time>
      </trkpt>
      <trkpt lat="45.32509" lon="0.24697">
        <ele>110</ele>
        <time>2025-04-11T10:07:45Z</time>
      </trkpt>
      <trkpt lat="45.32528" lon="0.247">
        <ele>109</ele>
        <time>2025-04-11T10:07:48Z</time>
      </trkpt>
      <trkpt lat="45.32551" lon="0.24706">
        <ele>108</ele>
        <time>2025-04-11T10:07:52Z</time>
      </trkpt>
      <trkpt lat="45.3259" lon="0.2472">
        <ele>106</ele>
        <time>2025-04-11T10:08:00Z</time>
      </trkpt>
      <trkpt lat="45.3261" lon="0.24723">
        <ele>105</ele>
        <time>2025-04-11T10:08:03Z</time>
      </trkpt>
      <trkpt lat="45.32612" lon="0.24729">
        <ele>105</ele>
        <time>2025-04-11T10:08:04Z</time>
      </trkpt>
      <trkpt lat="45.32621" lon="0.24741">
        <ele>104</ele>
        <time>2025-04-11T10:08:06Z</time>
      </trkpt>
      <trkpt lat="45.32691" lon="0.24913">
        <ele>103</ele>
        <time>2025-04-11T10:08:31Z</time>
      </trkpt>
      <trkpt lat="45.32621" lon="0.24741">
        <ele>104</ele>
        <time>2025-04-11T10:08:56Z</time>
      </trkpt>
      <trkpt lat="45.32725" lon="0.24788">
        <ele>99</ele>
        <time>2025-04-11T10:09:15Z</time>
      </trkpt>
      <trkpt lat="45.32747" lon="0.24801">
        <ele>98</ele>
        <time>2025-04-11T10:09:20Z</time>
      </trkpt>
      <trkpt lat="45.32768" lon="0.24818">
        <ele>98</ele>
        <time>2025-04-11T10:09:24Z</time>
      </trkpt>
      <trkpt lat="45.32832" lon="0.24887">
        <ele>96</ele>
        <time>2025-04-11T10:09:38Z</time>
      </trkpt>
      <trkpt lat="45.32864" lon="0.24924">
        <ele>94</ele>
        <time>2025-04-11T10:09:45Z</time>
      </trkpt>
      <trkpt lat="45.32893" lon="0.24957">
        <ele>93</ele>
        <time>2025-04-11T10:09:52Z</time>
      </trkpt>
      <trkpt lat="45.32919" lon="0.24986">
        <ele>94</ele>
        <time>2025-04-11T10:09:58Z</time>
      </trkpt>
      <trkpt lat="45.3293" lon="0.24993">
        <ele>95</ele>
        <time>2025-04-11T10:10:00Z</time>
      </trkpt>
      <trkpt lat="45.32943" lon="0.24998">
        <ele>95</ele>
        <time>2025-04-11T10:10:03Z</time>
      </trkpt>
      <trkpt lat="45.32957" lon="0.25">
        <ele>95</ele>
        <time>2025-04-11T10:10:05Z</time>
      </trkpt>
      <trkpt lat="45.32967" lon="0.24998">
        <ele>95</ele>
        <time>2025-04-11T10:10:07Z</time>
      </trkpt>
      <trkpt lat="45.32978" lon="0.24993">
        <ele>95</ele>
        <time>2025-04-11T10:10:09Z</time>
      </trkpt>
      <trkpt lat="45.33138" lon="0.24897">
        <ele>89</ele>
        <time>2025-04-11T10:10:40Z</time>
      </trkpt>
      <trkpt lat="45.33155" lon="0.24892">
        <ele>88</ele>
        <time>2025-04-11T10:10:43Z</time>
      </trkpt>
      <trkpt lat="45.33167" lon="0.24891">
        <ele>88</ele>
        <time>2025-04-11T10:10:45Z</time>
      </trkpt>
      <trkpt lat="45.33179" lon="0.24894">
        <ele>88</ele>
        <time>2025-04-11T10:10:47Z</time>
      </trkpt>
      <trkpt lat="45.33219" lon="0.24906">
        <ele>86</ele>
        <time>2025-04-11T10:10:54Z</time>
      </trkpt>
      <trkpt lat="45.33277" lon="0.24927">
        <ele>83</ele>
        <time>2025-04-11T10:11:05Z</time>
      </trkpt>
      <trkpt lat="45.33299" lon="0.24938">
        <ele>82</ele>
        <time>2025-04-11T10:11:09Z</time>
      </trkpt>
      <trkpt lat="45.33316" lon="0.24951">
        <ele>82</ele>
        <time>2025-04-11T10:11:13Z</time>
      </trkpt>
      <trkpt lat="45.3333" lon="0.24965">
        <ele>81</ele>
        <time>2025-04-11T10:11:16Z</time>
      </trkpt>
      <trkpt lat="45.3357" lon="0.25278">
        <ele>75</ele>
        <time>2025-04-11T10:12:14Z</time>
      </trkpt>
      <trkpt lat="45.33612" lon="0.25332">
        <ele>75</ele>
        <time>2025-04-11T10:12:24Z</time>
      </trkpt>
      <trkpt lat="45.33625" lon="0.25345">
        <ele>74</ele>
        <time>2025-04-11T10:12:27Z</time>
      </trkpt>
      <trkpt lat="45.33642" lon="0.25359">
        <ele>72</ele>
        <time>2025-04-11T10:12:30Z</time>
      </trkpt>
      <trkpt lat="45.3366" lon="0.25369">
        <ele>69</ele>
        <time>2025-04-11T10:12:33Z</time>
      </trkpt>
      <trkpt lat="45.3368" lon="0.25374">
        <ele>68</ele>
        <time>2025-04-11T10:12:37Z</time>
      </trkpt>
      <trkpt lat="45.33705" lon="0.25375">
        <ele>68</ele>
        <time>2025-04-11T10:12:42Z</time>
      </trkpt>
      <trkpt lat="45.33728" lon="0.2537">
        <ele>67</ele>
        <time>2025-04-11T10:12:46Z</time>
      </trkpt>
      <trkpt lat="45.3378" lon="0.25349">
        <ele>68</ele>
        <time>2025-04-11T10:12:55Z</time>
      </trkpt>
      <trkpt lat="45.33845" lon="0.25321">
        <ele>71</ele>
        <time>2025-04-11T10:13:07Z</time>
      </trkpt>
      <trkpt lat="45.341" lon="0.25216">
        <ele>78</ele>
        <time>2025-04-11T10:13:55Z</time>
      </trkpt>
      <trkpt lat="45.3432" lon="0.25124">
        <ele>75</ele>
        <time>2025-04-11T10:14:35Z</time>
      </trkpt>
      <trkpt lat="45.34323" lon="0.25123">
        <ele>75</ele>
        <time>2025-04-11T10:14:36Z</time>
      </trkpt>
      <trkpt lat="45.34393" lon="0.25095">
        <ele>77</ele>
        <time>2025-04-11T10:14:49Z</time>
      </trkpt>
      <trkpt lat="45.34413" lon="0.25085">
        <ele>77</ele>
        <time>2025-04-11T10:14:53Z</time>
      </trkpt>
      <trkpt lat="45.3454" lon="0.25014">
        <ele>74</ele>
        <time>2025-04-11T10:15:17Z</time>
      </trkpt>
      <trkpt lat="45.3479" lon="0.24875">
        <ele>77</ele>
        <time>2025-04-11T10:16:05Z</time>
      </trkpt>
      <trkpt lat="45.34799" lon="0.24872">
        <ele>77</ele>
        <time>2025-04-11T10:16:06Z</time>
      </trkpt>
      <trkpt lat="45.3482" lon="0.24863">
        <ele>78</ele>
        <time>2025-04-11T10:16:10Z</time>
      </trkpt>
      <trkpt lat="45.34855" lon="0.24844">
        <ele>77</ele>
        <time>2025-04-11T10:16:17Z</time>
      </trkpt>
      <trkpt lat="45.34862" lon="0.24843">
        <ele>77</ele>
        <time>2025-04-11T10:16:18Z</time>
      </trkpt>
      <trkpt lat="45.34866" lon="0.24846">
        <ele>77</ele>
        <time>2025-04-11T10:16:19Z</time>
      </trkpt>
      <trkpt lat="45.3487" lon="0.2485">
        <ele>77</ele>
        <time>2025-04-11T10:16:20Z</time>
      </trkpt>
      <trkpt lat="45.34902" lon="0.24917">
        <ele>75</ele>
        <time>2025-04-11T10:16:30Z</time>
      </trkpt>
      <trkpt lat="45.34909" lon="0.24925">
        <ele>75</ele>
        <time>2025-04-11T10:16:32Z</time>
      </trkpt>
      <trkpt lat="45.34919" lon="0.24929">
        <ele>74</ele>
        <time>2025-04-11T10:16:33Z</time>
      </trkpt>
      <trkpt lat="45.34919" lon="0.24935">
        <ele>74</ele>
        <time>2025-04-11T10:16:34Z</time>
      </trkpt>
      <trkpt lat="45.34926" lon="0.24947">
        <ele>74</ele>
        <time>2025-04-11T10:16:36Z</time>
      </trkpt>
      <trkpt lat="45.34959" lon="0.24986">
        <ele>71</ele>
        <time>2025-04-11T10:16:44Z</time>
      </trkpt>
      <trkpt lat="45.35079" lon="0.25139">
        <ele>67</ele>
        <time>2025-04-11T10:17:12Z</time>
      </trkpt>
      <trkpt lat="45.35084" lon="0.25145">
        <ele>67</ele>
        <time>2025-04-11T10:17:14Z</time>
      </trkpt>
      <trkpt lat="45.35116" lon="0.25186">
        <ele>66</ele>
        <time>2025-04-11T10:17:21Z</time>
      </trkpt>
      <trkpt lat="45.35149" lon="0.25227">
        <ele>66</ele>
        <time>2025-04-11T10:17:29Z</time>
      </trkpt>
      <trkpt lat="45.35156" lon="0.25235">
        <ele>66</ele>
        <time>2025-04-11T10:17:31Z</time>
      </trkpt>
      <trkpt lat="45.35169" lon="0.25269">
        <ele>66</ele>
        <time>2025-04-11T10:17:35Z</time>
      </trkpt>
      <trkpt lat="45.35173" lon="0.25306">
        <ele>66</ele>
        <time>2025-04-11T10:17:40Z</time>
      </trkpt>
      <trkpt lat="45.35173" lon="0.2531">
        <ele>66</ele>
        <time>2025-04-11T10:17:41Z</time>
      </trkpt>
      <trkpt lat="45.35174" lon="0.25316">
        <ele>66</ele>
        <time>2025-04-11T10:17:41Z</time>
      </trkpt>
      <trkpt lat="45.35175" lon="0.25328">
        <ele>66</ele>
        <time>2025-04-11T10:17:43Z</time>
      </trkpt>
      <trkpt lat="45.3519" lon="0.25469">
        <ele>62</ele>
        <time>2025-04-11T10:18:01Z</time>
      </trkpt>
      <trkpt lat="45.35191" lon="0.25476">
        <ele>62</ele>
        <time>2025-04-11T10:18:02Z</time>
      </trkpt>
      <trkpt lat="45.35196" lon="0.25518">
        <ele>62</ele>
        <time>2025-04-11T10:18:07Z</time>
      </trkpt>
      <trkpt lat="45.352" lon="0.25541">
        <ele>62</ele>
        <time>2025-04-11T10:18:10Z</time>
      </trkpt>
      <trkpt lat="45.35229" lon="0.25567">
        <ele>62</ele>
        <time>2025-04-11T10:18:16Z</time>
      </trkpt>
      <trkpt lat="45.35246" lon="0.25577">
        <ele>62</ele>
        <time>2025-04-11T10:18:19Z</time>
      </trkpt>
      <trkpt lat="45.35324" lon="0.2561">
        <ele>63</ele>
        <time>2025-04-11T10:18:34Z</time>
      </trkpt>
      <trkpt lat="45.35331" lon="0.25613">
        <ele>63</ele>
        <time>2025-04-11T10:18:35Z</time>
      </trkpt>
      <trkpt lat="45.35347" lon="0.25624">
        <ele>63</ele>
        <time>2025-04-11T10:18:38Z</time>
      </trkpt>
      <trkpt lat="45.35362" lon="0.2564">
        <ele>63</ele>
        <time>2025-04-11T10:18:42Z</time>
      </trkpt>
      <trkpt lat="45.35375" lon="0.25662">
        <ele>63</ele>
        <time>2025-04-11T10:18:45Z</time>
      </trkpt>
      <trkpt lat="45.35378" lon="0.25669">
        <ele>64</ele>
        <time>2025-04-11T10:18:46Z</time>
      </trkpt>
      <trkpt lat="45.35414" lon="0.25747">
        <ele>63</ele>
        <time>2025-04-11T10:18:58Z</time>
      </trkpt>
      <trkpt lat="45.35481" lon="0.25839">
        <ele>62</ele>
        <time>2025-04-11T10:19:14Z</time>
      </trkpt>
      <trkpt lat="45.35688" lon="0.26024">
        <ele>64</ele>
        <time>2025-04-11T10:19:58Z</time>
      </trkpt>
      <trkpt lat="45.35701" lon="0.26027">
        <ele>65</ele>
        <time>2025-04-11T10:20:00Z</time>
      </trkpt>
      <trkpt lat="45.35709" lon="0.26029">
        <ele>65</ele>
        <time>2025-04-11T10:20:02Z</time>
      </trkpt>
      <trkpt lat="45.35813" lon="0.26017">
        <ele>73</ele>
        <time>2025-04-11T10:20:20Z</time>
      </trkpt>
      <trkpt lat="45.35818" lon="0.26018">
        <ele>73</ele>
        <time>2025-04-11T10:20:21Z</time>
      </trkpt>
      <trkpt lat="45.35981" lon="0.26064">
        <ele>79</ele>
        <time>2025-04-11T10:20:51Z</time>
      </trkpt>
      <trkpt lat="45.36059" lon="0.26086">
        <ele>81</ele>
        <time>2025-04-11T10:21:05Z</time>
      </trkpt>
      <trkpt lat="45.36122" lon="0.26123">
        <ele>82</ele>
        <time>2025-04-11T10:21:17Z</time>
      </trkpt>
      <trkpt lat="45.36217" lon="0.26133">
        <ele>83</ele>
        <time>2025-04-11T10:21:34Z</time>
      </trkpt>
      <trkpt lat="45.36321" lon="0.26163">
        <ele>88</ele>
        <time>2025-04-11T10:21:53Z</time>
      </trkpt>
      <trkpt lat="45.3637" lon="0.26177">
        <ele>93</ele>
        <time>2025-04-11T10:22:02Z</time>
      </trkpt>
      <trkpt lat="45.36391" lon="0.26177">
        <ele>95</ele>
        <time>2025-04-11T10:22:06Z</time>
      </trkpt>
      <trkpt lat="45.36413" lon="0.26157">
        <ele>96</ele>
        <time>2025-04-11T10:22:10Z</time>
      </trkpt>
      <trkpt lat="45.36452" lon="0.26094">
        <ele>92</ele>
        <time>2025-04-11T10:22:21Z</time>
      </trkpt>
      <trkpt lat="45.36493" lon="0.26055">
        <ele>90</ele>
        <time>2025-04-11T10:22:29Z</time>
      </trkpt>
      <trkpt lat="45.36552" lon="0.26024">
        <ele>89</ele>
        <time>2025-04-11T10:22:41Z</time>
      </trkpt>
      <trkpt lat="45.36585" lon="0.26021">
        <ele>89</ele>
        <time>2025-04-11T10:22:46Z</time>
      </trkpt>
      <trkpt lat="45.3664" lon="0.26035">
        <ele>90</ele>
        <time>2025-04-11T10:22:56Z</time>
      </trkpt>
      <trkpt lat="45.36707" lon="0.2606">
        <ele>94</ele>
        <time>2025-04-11T10:23:09Z</time>
      </trkpt>
      <trkpt lat="45.36731" lon="0.26062">
        <ele>94</ele>
        <time>2025-04-11T10:23:13Z</time>
      </trkpt>
      <trkpt lat="45.36739" lon="0.26063">
        <ele>94</ele>
        <time>2025-04-11T10:23:14Z</time>
      </trkpt>
      <trkpt lat="45.36896" lon="0.25984">
        <ele>89</ele>
        <time>2025-04-11T10:23:44Z</time>
      </trkpt>
      <trkpt lat="45.36935" lon="0.25977">
        <ele>89</ele>
        <time>2025-04-11T10:23:51Z</time>
      </trkpt>
      <trkpt lat="45.37077" lon="0.25978">
        <ele>88</ele>
        <time>2025-04-11T10:24:16Z</time>
      </trkpt>
      <trkpt lat="45.37117" lon="0.25977">
        <ele>87</ele>
        <time>2025-04-11T10:24:23Z</time>
      </trkpt>
      <trkpt lat="45.37132" lon="0.25979">
        <ele>87</ele>
        <time>2025-04-11T10:24:26Z</time>
      </trkpt>
      <trkpt lat="45.37137" lon="0.25993">
        <ele>88</ele>
        <time>2025-04-11T10:24:28Z</time>
      </trkpt>
      <trkpt lat="45.37193" lon="0.26064">
        <ele>98</ele>
        <time>2025-04-11T10:24:41Z</time>
      </trkpt>
      <trkpt lat="45.37212" lon="0.26073">
        <ele>99</ele>
        <time>2025-04-11T10:24:45Z</time>
      </trkpt>
      <trkpt lat="45.37261" lon="0.2607">
        <ele>99</ele>
        <time>2025-04-11T10:24:54Z</time>
      </trkpt>
      <trkpt lat="45.37273" lon="0.26071">
        <ele>99</ele>
        <time>2025-04-11T10:24:56Z</time>
      </trkpt>
      <trkpt lat="45.37292" lon="0.26076">
        <ele>99</ele>
        <time>2025-04-11T10:24:59Z</time>
      </trkpt>
      <trkpt lat="45.37303" lon="0.26097">
        <ele>101</ele>
        <time>2025-04-11T10:25:03Z</time>
      </trkpt>
      <trkpt lat="45.37302" lon="0.2612">
        <ele>104</ele>
        <time>2025-04-11T10:25:05Z</time>
      </trkpt>
      <trkpt lat="45.37293" lon="0.26147">
        <ele>107</ele>
        <time>2025-04-11T10:25:09Z</time>
      </trkpt>
      <trkpt lat="45.37289" lon="0.2617">
        <ele>110</ele>
        <time>2025-04-11T10:25:12Z</time>
      </trkpt>
      <trkpt lat="45.373" lon="0.26274">
        <ele>117</ele>
        <time>2025-04-11T10:25:25Z</time>
      </trkpt>
      <trkpt lat="45.37307" lon="0.26286">
        <ele>117</ele>
        <time>2025-04-11T10:25:27Z</time>
      </trkpt>
      <trkpt lat="45.37314" lon="0.26293">
        <ele>118</ele>
        <time>2025-04-11T10:25:29Z</time>
      </trkpt>
      <trkpt lat="45.37371" lon="0.26318">
        <ele>120</ele>
        <time>2025-04-11T10:25:39Z</time>
      </trkpt>
      <trkpt lat="45.37462" lon="0.26375">
        <ele>124</ele>
        <time>2025-04-11T10:25:57Z</time>
      </trkpt>
      <trkpt lat="45.37501" lon="0.26399">
        <ele>127</ele>
        <time>2025-04-11T10:26:05Z</time>
      </trkpt>
      <trkpt lat="45.37555" lon="0.26455">
        <ele>127</ele>
        <time>2025-04-11T10:26:17Z</time>
      </trkpt>
      <trkpt lat="45.37616" lon="0.26497">
        <ele>129</ele>
        <time>2025-04-11T10:26:29Z</time>
      </trkpt>
      <trkpt lat="45.37651" lon="0.26526">
        <ele>127</ele>
        <time>2025-04-11T10:26:36Z</time>
      </trkpt>
      <trkpt lat="45.37679" lon="0.26554">
        <ele>126</ele>
        <time>2025-04-11T10:26:42Z</time>
      </trkpt>
      <trkpt lat="45.37729" lon="0.26621">
        <ele>126</ele>
        <time>2025-04-11T10:26:54Z</time>
      </trkpt>
      <trkpt lat="45.37757" lon="0.26689">
        <ele>127</ele>
        <time>2025-04-11T10:27:04Z</time>
      </trkpt>
      <trkpt lat="45.37764" lon="0.26703">
        <ele>127</ele>
        <time>2025-04-11T10:27:06Z</time>
      </trkpt>
      <trkpt lat="45.37779" lon="0.26713">
        <ele>126</ele>
        <time>2025-04-11T10:27:09Z</time>
      </trkpt>
      <trkpt lat="45.37833" lon="0.26742">
        <ele>125</ele>
        <time>2025-04-11T10:27:19Z</time>
      </trkpt>
      <trkpt lat="45.37873" lon="0.26765">
        <ele>120</ele>
        <time>2025-04-11T10:27:27Z</time>
      </trkpt>
      <trkpt lat="45.37882" lon="0.26764">
        <ele>119</ele>
        <time>2025-04-11T10:27:29Z</time>
      </trkpt>
      <trkpt lat="45.37888" lon="0.26784">
        <ele>119</ele>
        <time>2025-04-11T10:27:31Z</time>
      </trkpt>
      <trkpt lat="45.37889" lon="0.26801">
        <ele>120</ele>
        <time>2025-04-11T10:27:33Z</time>
      </trkpt>
      <trkpt lat="45.37879" lon="0.26851">
        <ele>125</ele>
        <time>2025-04-11T10:27:40Z</time>
      </trkpt>
      <trkpt lat="45.37879" lon="0.26873">
        <ele>127</ele>
        <time>2025-04-11T10:27:43Z</time>
      </trkpt>
      <trkpt lat="45.37883" lon="0.26894">
        <ele>127</ele>
        <time>2025-04-11T10:27:45Z</time>
      </trkpt>
      <trkpt lat="45.3789" lon="0.26913">
        <ele>128</ele>
        <time>2025-04-11T10:27:48Z</time>
      </trkpt>
      <trkpt lat="45.37899" lon="0.26928">
        <ele>128</ele>
        <time>2025-04-11T10:27:51Z</time>
      </trkpt>
      <trkpt lat="45.37934" lon="0.26962">
        <ele>128</ele>
        <time>2025-04-11T10:27:58Z</time>
      </trkpt>
      <trkpt lat="45.37958" lon="0.2698">
        <ele>129</ele>
        <time>2025-04-11T10:28:03Z</time>
      </trkpt>
      <trkpt lat="45.37972" lon="0.26995">
        <ele>130</ele>
        <time>2025-04-11T10:28:06Z</time>
      </trkpt>
      <trkpt lat="45.37982" lon="0.2701">
        <ele>130</ele>
        <time>2025-04-11T10:28:09Z</time>
      </trkpt>
      <trkpt lat="45.37991" lon="0.27022">
        <ele>130</ele>
        <time>2025-04-11T10:28:11Z</time>
      </trkpt>
      <trkpt lat="45.38" lon="0.27023">
        <ele>129</ele>
        <time>2025-04-11T10:28:12Z</time>
      </trkpt>
      <trkpt lat="45.38015" lon="0.27031">
        <ele>130</ele>
        <time>2025-04-11T10:28:15Z</time>
      </trkpt>
      <trkpt lat="45.38164" lon="0.27112">
        <ele>138</ele>
        <time>2025-04-11T10:28:44Z</time>
      </trkpt>
      <trkpt lat="45.38255" lon="0.2716">
        <ele>150</ele>
        <time>2025-04-11T10:29:01Z</time>
      </trkpt>
      <trkpt lat="45.38303" lon="0.27198">
        <ele>147</ele>
        <time>2025-04-11T10:29:11Z</time>
      </trkpt>
      <trkpt lat="45.38458" lon="0.27203">
        <ele>136</ele>
        <time>2025-04-11T10:29:38Z</time>
      </trkpt>
      <trkpt lat="45.38493" lon="0.2723">
        <ele>136</ele>
        <time>2025-04-11T10:29:45Z</time>
      </trkpt>
      <trkpt lat="45.38531" lon="0.27266">
        <ele>133</ele>
        <time>2025-04-11T10:29:53Z</time>
      </trkpt>
      <trkpt lat="45.38562" lon="0.27295">
        <ele>132</ele>
        <time>2025-04-11T10:30:00Z</time>
      </trkpt>
      <trkpt lat="45.38603" lon="0.27338">
        <ele>132</ele>
        <time>2025-04-11T10:30:09Z</time>
      </trkpt>
      <trkpt lat="45.38614" lon="0.27386">
        <ele>129</ele>
        <time>2025-04-11T10:30:15Z</time>
      </trkpt>
      <trkpt lat="45.38619" lon="0.27482">
        <ele>126</ele>
        <time>2025-04-11T10:30:27Z</time>
      </trkpt>
      <trkpt lat="45.38642" lon="0.27532">
        <ele>124</ele>
        <time>2025-04-11T10:30:35Z</time>
      </trkpt>
      <trkpt lat="45.38709" lon="0.27602">
        <ele>123</ele>
        <time>2025-04-11T10:30:50Z</time>
      </trkpt>
      <trkpt lat="45.38719" lon="0.27612">
        <ele>123</ele>
        <time>2025-04-11T10:30:52Z</time>
      </trkpt>
      <trkpt lat="45.38807" lon="0.27683">
        <ele>125</ele>
        <time>2025-04-11T10:31:10Z</time>
      </trkpt>
      <trkpt lat="45.38888" lon="0.27767">
        <ele>124</ele>
        <time>2025-04-11T10:31:28Z</time>
      </trkpt>
      <trkpt lat="45.38893" lon="0.27774">
        <ele>124</ele>
        <time>2025-04-11T10:31:29Z</time>
      </trkpt>
      <trkpt lat="45.38954" lon="0.27866">
        <ele>129</ele>
        <time>2025-04-11T10:31:45Z</time>
      </trkpt>
      <trkpt lat="45.38974" lon="0.27901">
        <ele>133</ele>
        <time>2025-04-11T10:31:50Z</time>
      </trkpt>
      <trkpt lat="45.38996" lon="0.27947">
        <ele>138</ele>
        <time>2025-04-11T10:31:57Z</time>
      </trkpt>
      <trkpt lat="45.39006" lon="0.27984">
        <ele>140</ele>
        <time>2025-04-11T10:32:02Z</time>
      </trkpt>
      <trkpt lat="45.39012" lon="0.28011">
        <ele>142</ele>
        <time>2025-04-11T10:32:06Z</time>
      </trkpt>
      <trkpt lat="45.39015" lon="0.28034">
        <ele>143</ele>
        <time>2025-04-11T10:32:09Z</time>
      </trkpt>
      <trkpt lat="45.39015" lon="0.28054">
        <ele>144</ele>
        <time>2025-04-11T10:32:11Z</time>
      </trkpt>
      <trkpt lat="45.39013" lon="0.2808">
        <ele>145</ele>
        <time>2025-04-11T10:32:15Z</time>
      </trkpt>
      <trkpt lat="45.39008" lon="0.28101">
        <ele>146</ele>
        <time>2025-04-11T10:32:17Z</time>
      </trkpt>
      <trkpt lat="45.39002" lon="0.28121">
        <ele>147</ele>
        <time>2025-04-11T10:32:20Z</time>
      </trkpt>
      <trkpt lat="45.38992" lon="0.28148">
        <ele>147</ele>
        <time>2025-04-11T10:32:24Z</time>
      </trkpt>
      <trkpt lat="45.38978" lon="0.28179">
        <ele>147</ele>
        <time>2025-04-11T10:32:28Z</time>
      </trkpt>
      <trkpt lat="45.3897" lon="0.28202">
        <ele>147</ele>
        <time>2025-04-11T10:32:32Z</time>
      </trkpt>
      <trkpt lat="45.38965" lon="0.28218">
        <ele>147</ele>
        <time>2025-04-11T10:32:34Z</time>
      </trkpt>
      <trkpt lat="45.38961" lon="0.28253">
        <ele>149</ele>
        <time>2025-04-11T10:32:38Z</time>
      </trkpt>
      <trkpt lat="45.38961" lon="0.28306">
        <ele>148</ele>
        <time>2025-04-11T10:32:45Z</time>
      </trkpt>
      <trkpt lat="45.38961" lon="0.28328">
        <ele>147</ele>
        <time>2025-04-11T10:32:48Z</time>
      </trkpt>
      <trkpt lat="45.38964" lon="0.28355">
        <ele>147</ele>
        <time>2025-04-11T10:32:51Z</time>
      </trkpt>
      <trkpt lat="45.38966" lon="0.28373">
        <ele>146</ele>
        <time>2025-04-11T10:32:53Z</time>
      </trkpt>
      <trkpt lat="45.3897" lon="0.28389">
        <ele>146</ele>
        <time>2025-04-11T10:32:56Z</time>
      </trkpt>
      <trkpt lat="45.38976" lon="0.28407">
        <ele>145</ele>
        <time>2025-04-11T10:32:58Z</time>
      </trkpt>
      <trkpt lat="45.38984" lon="0.28424">
        <ele>145</ele>
        <time>2025-04-11T10:33:01Z</time>
      </trkpt>
      <trkpt lat="45.39006" lon="0.28457">
        <ele>144</ele>
        <time>2025-04-11T10:33:06Z</time>
      </trkpt>
      <trkpt lat="45.39033" lon="0.28492">
        <ele>142</ele>
        <time>2025-04-11T10:33:13Z</time>
      </trkpt>
      <trkpt lat="45.39055" lon="0.28523">
        <ele>139</ele>
        <time>2025-04-11T10:33:18Z</time>
      </trkpt>
      <trkpt lat="45.39065" lon="0.28539">
        <ele>139</ele>
        <time>2025-04-11T10:33:21Z</time>
      </trkpt>
      <trkpt lat="45.3908" lon="0.28545">
        <ele>138</ele>
        <time>2025-04-11T10:33:24Z</time>
      </trkpt>
      <trkpt lat="45.39094" lon="0.28552">
        <ele>137</ele>
        <time>2025-04-11T10:33:26Z</time>
      </trkpt>
      <trkpt lat="45.39128" lon="0.28594">
        <ele>136</ele>
        <time>2025-04-11T10:33:34Z</time>
      </trkpt>
      <trkpt lat="45.39176" lon="0.28656">
        <ele>135</ele>
        <time>2025-04-11T10:33:46Z</time>
      </trkpt>
      <trkpt lat="45.39209" lon="0.28695">
        <ele>134</ele>
        <time>2025-04-11T10:33:54Z</time>
      </trkpt>
      <trkpt lat="45.39229" lon="0.28713">
        <ele>134</ele>
        <time>2025-04-11T10:33:58Z</time>
      </trkpt>
      <trkpt lat="45.39246" lon="0.28724">
        <ele>134</ele>
        <time>2025-04-11T10:34:01Z</time>
      </trkpt>
      <trkpt lat="45.39263" lon="0.28723">
        <ele>132</ele>
        <time>2025-04-11T10:34:04Z</time>
      </trkpt>
      <trkpt lat="45.39505" lon="0.28596">
        <ele>112</ele>
        <time>2025-04-11T10:34:50Z</time>
      </trkpt>
      <trkpt lat="45.39572" lon="0.28544">
        <ele>108</ele>
        <time>2025-04-11T10:35:04Z</time>
      </trkpt>
      <trkpt lat="45.39669" lon="0.28487">
        <ele>104</ele>
        <time>2025-04-11T10:35:22Z</time>
      </trkpt>
      <trkpt lat="45.39878" lon="0.28503">
        <ele>97</ele>
        <time>2025-04-11T10:35:59Z</time>
      </trkpt>
      <trkpt lat="45.39909" lon="0.28496">
        <ele>95</ele>
        <time>2025-04-11T10:36:05Z</time>
      </trkpt>
      <trkpt lat="45.39982" lon="0.28338">
        <ele>92</ele>
        <time>2025-04-11T10:36:29Z</time>
      </trkpt>
      <trkpt lat="45.40007" lon="0.28313">
        <ele>92</ele>
        <time>2025-04-11T10:36:34Z</time>
      </trkpt>
      <trkpt lat="45.40147" lon="0.28229">
        <ele>88</ele>
        <time>2025-04-11T10:37:01Z</time>
      </trkpt>
      <trkpt lat="45.40328" lon="0.28121">
        <ele>85</ele>
        <time>2025-04-11T10:37:36Z</time>
      </trkpt>
      <trkpt lat="45.4034" lon="0.28113">
        <ele>84</ele>
        <time>2025-04-11T10:37:38Z</time>
      </trkpt>
      <trkpt lat="45.40416" lon="0.28082">
        <ele>81</ele>
        <time>2025-04-11T10:37:52Z</time>
      </trkpt>
      <trkpt lat="45.40487" lon="0.28073">
        <ele>81</ele>
        <time>2025-04-11T10:38:05Z</time>
      </trkpt>
      <trkpt lat="45.40654" lon="0.28096">
        <ele>83</ele>
        <time>2025-04-11T10:38:35Z</time>
      </trkpt>
      <trkpt lat="45.40833" lon="0.28152">
        <ele>82</ele>
        <time>2025-04-11T10:39:08Z</time>
      </trkpt>
      <trkpt lat="45.40951" lon="0.28188">
        <ele>80</ele>
        <time>2025-04-11T10:39:29Z</time>
      </trkpt>
      <trkpt lat="45.4098" lon="0.28175">
        <ele>81</ele>
        <time>2025-04-11T10:39:34Z</time>
      </trkpt>
      <trkpt lat="45.41092" lon="0.28069">
        <ele>84</ele>
        <time>2025-04-11T10:39:58Z</time>
      </trkpt>
      <trkpt lat="45.41143" lon="0.28028">
        <ele>85</ele>
        <time>2025-04-11T10:40:09Z</time>
      </trkpt>
      <trkpt lat="45.41215" lon="0.28007">
        <ele>82</ele>
        <time>2025-04-11T10:40:22Z</time>
      </trkpt>
      <trkpt lat="45.41298" lon="0.27983">
        <ele>78</ele>
        <time>2025-04-11T10:40:37Z</time>
      </trkpt>
      <trkpt lat="45.41419" lon="0.27962">
        <ele>77</ele>
        <time>2025-04-11T10:40:59Z</time>
      </trkpt>
      <trkpt lat="45.41565" lon="0.27993">
        <ele>79</ele>
        <time>2025-04-11T10:41:25Z</time>
      </trkpt>
      <trkpt lat="45.41633" lon="0.28008">
        <ele>77</ele>
        <time>2025-04-11T10:41:37Z</time>
      </trkpt>
      <trkpt lat="45.41639" lon="0.28009">
        <ele>77</ele>
        <time>2025-04-11T10:41:38Z</time>
      </trkpt>
      <trkpt lat="45.41789" lon="0.2804">
        <ele>77</ele>
        <time>2025-04-11T10:42:05Z</time>
      </trkpt>
      <trkpt lat="45.42052" lon="0.28017">
        <ele>80</ele>
        <time>2025-04-11T10:42:52Z</time>
      </trkpt>
      <trkpt lat="45.42215" lon="0.2795">
        <ele>77</ele>
        <time>2025-04-11T10:43:22Z</time>
      </trkpt>
      <trkpt lat="45.42318" lon="0.27891">
        <ele>78</ele>
        <time>2025-04-11T10:43:42Z</time>
      </trkpt>
      <trkpt lat="45.42375" lon="0.27829">
        <ele>78</ele>
        <time>2025-04-11T10:43:55Z</time>
      </trkpt>
      <trkpt lat="45.42433" lon="0.27724">
        <ele>78</ele>
        <time>2025-04-11T10:44:11Z</time>
      </trkpt>
      <trkpt lat="45.42453" lon="0.27705">
        <ele>78</ele>
        <time>2025-04-11T10:44:16Z</time>
      </trkpt>
      <trkpt lat="45.42446" lon="0.27777">
        <ele>79</ele>
        <time>2025-04-11T10:44:25Z</time>
      </trkpt>
      <trkpt lat="45.42424" lon="0.27994">
        <ele>83</ele>
        <time>2025-04-11T10:44:52Z</time>
      </trkpt>
      <trkpt lat="45.42388" lon="0.28335">
        <ele>87</ele>
        <time>2025-04-11T10:45:35Z</time>
      </trkpt>
      <trkpt lat="45.42384" lon="0.28364">
        <ele>86</ele>
        <time>2025-04-11T10:45:39Z</time>
      </trkpt>
      <trkpt lat="45.42382" lon="0.2837">
        <ele>86</ele>
        <time>2025-04-11T10:45:40Z</time>
      </trkpt>
      <trkpt lat="45.42378" lon="0.28377">
        <ele>86</ele>
        <time>2025-04-11T10:45:41Z</time>
      </trkpt>
      <trkpt lat="45.42338" lon="0.28426">
        <ele>87</ele>
        <time>2025-04-11T10:45:50Z</time>
      </trkpt>
      <trkpt lat="45.423" lon="0.28471">
        <ele>87</ele>
        <time>2025-04-11T10:45:59Z</time>
      </trkpt>
      <trkpt lat="45.42286" lon="0.28489">
        <ele>88</ele>
        <time>2025-04-11T10:46:02Z</time>
      </trkpt>
      <trkpt lat="45.42277" lon="0.28503">
        <ele>88</ele>
        <time>2025-04-11T10:46:05Z</time>
      </trkpt>
      <trkpt lat="45.42268" lon="0.2852">
        <ele>88</ele>
        <time>2025-04-11T10:46:07Z</time>
      </trkpt>
      <trkpt lat="45.42258" lon="0.28545">
        <ele>89</ele>
        <time>2025-04-11T10:46:11Z</time>
      </trkpt>
      <trkpt lat="45.42132" lon="0.28903">
        <ele>98</ele>
        <time>2025-04-11T10:47:01Z</time>
      </trkpt>
      <trkpt lat="45.42092" lon="0.29015">
        <ele>103</ele>
        <time>2025-04-11T10:47:17Z</time>
      </trkpt>
      <trkpt lat="45.41848" lon="0.29502">
        <ele>117</ele>
        <time>2025-04-11T10:48:32Z</time>
      </trkpt>
      <trkpt lat="45.41797" lon="0.29607">
        <ele>119</ele>
        <time>2025-04-11T10:48:47Z</time>
      </trkpt>
      <trkpt lat="45.41746" lon="0.29725">
        <ele>119</ele>
        <time>2025-04-11T10:49:05Z</time>
      </trkpt>
      <trkpt lat="45.41742" lon="0.29733">
        <ele>119</ele>
        <time>2025-04-11T10:49:06Z</time>
      </trkpt>
      <trkpt lat="45.41723" lon="0.29779">
        <ele>118</ele>
        <time>2025-04-11T10:49:13Z</time>
      </trkpt>
      <trkpt lat="45.41713" lon="0.29802">
        <ele>116</ele>
        <time>2025-04-11T10:49:16Z</time>
      </trkpt>
      <trkpt lat="45.41707" lon="0.29812">
        <ele>116</ele>
        <time>2025-04-11T10:49:18Z</time>
      </trkpt>
      <trkpt lat="45.417" lon="0.29821">
        <ele>115</ele>
        <time>2025-04-11T10:49:19Z</time>
      </trkpt>
      <trkpt lat="45.4169" lon="0.29831">
        <ele>115</ele>
        <time>2025-04-11T10:49:22Z</time>
      </trkpt>
      <trkpt lat="45.41676" lon="0.29843">
        <ele>114</ele>
        <time>2025-04-11T10:49:24Z</time>
      </trkpt>
      <trkpt lat="45.41655" lon="0.29856">
        <ele>112</ele>
        <time>2025-04-11T10:49:29Z</time>
      </trkpt>
      <trkpt lat="45.41633" lon="0.29865">
        <ele>111</ele>
        <time>2025-04-11T10:49:33Z</time>
      </trkpt>
      <trkpt lat="45.41612" lon="0.29871">
        <ele>111</ele>
        <time>2025-04-11T10:49:36Z</time>
      </trkpt>
      <trkpt lat="45.41554" lon="0.29879">
        <ele>109</ele>
        <time>2025-04-11T10:49:47Z</time>
      </trkpt>
      <trkpt lat="45.41544" lon="0.29883">
        <ele>108</ele>
        <time>2025-04-11T10:49:49Z</time>
      </trkpt>
      <trkpt lat="45.41537" lon="0.29888">
        <ele>108</ele>
        <time>2025-04-11T10:49:50Z</time>
      </trkpt>
      <trkpt lat="45.41532" lon="0.29893">
        <ele>107</ele>
        <time>2025-04-11T10:49:51Z</time>
      </trkpt>
      <trkpt lat="45.41523" lon="0.29905">
        <ele>107</ele>
        <time>2025-04-11T10:49:53Z</time>
      </trkpt>
      <trkpt lat="45.41513" lon="0.29923">
        <ele>106</ele>
        <time>2025-04-11T10:49:56Z</time>
      </trkpt>
      <trkpt lat="45.41501" lon="0.29953">
        <ele>107</ele>
        <time>2025-04-11T10:50:00Z</time>
      </trkpt>
      <trkpt lat="45.4149" lon="0.2999">
        <ele>109</ele>
        <time>2025-04-11T10:50:05Z</time>
      </trkpt>
      <trkpt lat="45.41486" lon="0.30014">
        <ele>110</ele>
        <time>2025-04-11T10:50:09Z</time>
      </trkpt>
      <trkpt lat="45.41482" lon="0.30039">
        <ele>111</ele>
        <time>2025-04-11T10:50:12Z</time>
      </trkpt>
      <trkpt lat="45.41481" lon="0.30077">
        <ele>114</ele>
        <time>2025-04-11T10:50:17Z</time>
      </trkpt>
      <trkpt lat="45.41481" lon="0.30117">
        <ele>117</ele>
        <time>2025-04-11T10:50:22Z</time>
      </trkpt>
      <trkpt lat="45.41483" lon="0.30139">
        <ele>118</ele>
        <time>2025-04-11T10:50:24Z</time>
      </trkpt>
      <trkpt lat="45.41487" lon="0.30155">
        <ele>119</ele>
        <time>2025-04-11T10:50:26Z</time>
      </trkpt>
      <trkpt lat="45.4149" lon="0.30168">
        <ele>120</ele>
        <time>2025-04-11T10:50:28Z</time>
      </trkpt>
      <trkpt lat="45.41499" lon="0.30187">
        <ele>122</ele>
        <time>2025-04-11T10:50:31Z</time>
      </trkpt>
      <trkpt lat="45.41506" lon="0.30197">
        <ele>122</ele>
        <time>2025-04-11T10:50:33Z</time>
      </trkpt>
      <trkpt lat="45.4155" lon="0.30243">
        <ele>124</ele>
        <time>2025-04-11T10:50:42Z</time>
      </trkpt>
      <trkpt lat="45.41556" lon="0.30252">
        <ele>124</ele>
        <time>2025-04-11T10:50:44Z</time>
      </trkpt>
      <trkpt lat="45.4156" lon="0.3026">
        <ele>124</ele>
        <time>2025-04-11T10:50:45Z</time>
      </trkpt>
      <trkpt lat="45.41563" lon="0.3027">
        <ele>125</ele>
        <time>2025-04-11T10:50:47Z</time>
      </trkpt>
      <trkpt lat="45.41564" lon="0.30279">
        <ele>125</ele>
        <time>2025-04-11T10:50:48Z</time>
      </trkpt>
      <trkpt lat="45.41563" lon="0.303">
        <ele>126</ele>
        <time>2025-04-11T10:50:50Z</time>
      </trkpt>
      <trkpt lat="45.4156" lon="0.30312">
        <ele>126</ele>
        <time>2025-04-11T10:50:52Z</time>
      </trkpt>
      <trkpt lat="45.41556" lon="0.30321">
        <ele>127</ele>
        <time>2025-04-11T10:50:53Z</time>
      </trkpt>
      <trkpt lat="45.41552" lon="0.30328">
        <ele>127</ele>
        <time>2025-04-11T10:50:54Z</time>
      </trkpt>
      <trkpt lat="45.41546" lon="0.30334">
        <ele>128</ele>
        <time>2025-04-11T10:50:56Z</time>
      </trkpt>
      <trkpt lat="45.41538" lon="0.30339">
        <ele>129</ele>
        <time>2025-04-11T10:50:57Z</time>
      </trkpt>
      <trkpt lat="45.41518" lon="0.30347">
        <ele>130</ele>
        <time>2025-04-11T10:51:01Z</time>
      </trkpt>
      <trkpt lat="45.41481" lon="0.30362">
        <ele>131</ele>
        <time>2025-04-11T10:51:08Z</time>
      </trkpt>
      <trkpt lat="45.4146" lon="0.30369">
        <ele>132</ele>
        <time>2025-04-11T10:51:12Z</time>
      </trkpt>
      <trkpt lat="45.41453" lon="0.30368">
        <ele>132</ele>
        <time>2025-04-11T10:51:13Z</time>
      </trkpt>
      <trkpt lat="45.41449" lon="0.30362">
        <ele>132</ele>
        <time>2025-04-11T10:51:14Z</time>
      </trkpt>
      <trkpt lat="45.41441" lon="0.30323">
        <ele>132</ele>
        <time>2025-04-11T10:51:19Z</time>
      </trkpt>
      <trkpt lat="45.4144" lon="0.3032">
        <ele>132</ele>
        <time>2025-04-11T10:51:19Z</time>
      </trkpt>
      <trkpt lat="45.41438" lon="0.30318">
        <ele>132</ele>
        <time>2025-04-11T10:51:20Z</time>
      </trkpt>
      <trkpt lat="45.41436" lon="0.30317">
        <ele>132</ele>
        <time>2025-04-11T10:51:20Z</time>
      </trkpt>
      <trkpt lat="45.414" lon="0.30324">
        <ele>132</ele>
        <time>2025-04-11T10:51:27Z</time>
      </trkpt>
      <trkpt lat="45.41372" lon="0.30331">
        <ele>132</ele>
        <time>2025-04-11T10:51:32Z</time>
      </trkpt>
      <trkpt lat="45.4136" lon="0.30337">
        <ele>132</ele>
        <time>2025-04-11T10:51:34Z</time>
      </trkpt>
      <trkpt lat="45.41356" lon="0.30341">
        <ele>132</ele>
        <time>2025-04-11T10:51:35Z</time>
      </trkpt>
      <trkpt lat="45.41321" lon="0.30376">
        <ele>133</ele>
        <time>2025-04-11T10:51:42Z</time>
      </trkpt>
      <trkpt lat="45.41281" lon="0.30419">
        <ele>134</ele>
        <time>2025-04-11T10:51:51Z</time>
      </trkpt>
      <trkpt lat="45.412" lon="0.30509">
        <ele>136</ele>
        <time>2025-04-11T10:52:10Z</time>
      </trkpt>
      <trkpt lat="45.41161" lon="0.30548">
        <ele>137</ele>
        <time>2025-04-11T10:52:18Z</time>
      </trkpt>
      <trkpt lat="45.41136" lon="0.3058">
        <ele>138</ele>
        <time>2025-04-11T10:52:24Z</time>
      </trkpt>
      <trkpt lat="45.41127" lon="0.30595">
        <ele>139</ele>
        <time>2025-04-11T10:52:27Z</time>
      </trkpt>
      <trkpt lat="45.41112" lon="0.30625">
        <ele>140</ele>
        <time>2025-04-11T10:52:31Z</time>
      </trkpt>
      <trkpt lat="45.41045" lon="0.30783">
        <ele>143</ele>
        <time>2025-04-11T10:52:54Z</time>
      </trkpt>
      <trkpt lat="45.41" lon="0.30885">
        <ele>146</ele>
        <time>2025-04-11T10:53:09Z</time>
      </trkpt>
      <trkpt lat="45.40992" lon="0.30908">
        <ele>146</ele>
        <time>2025-04-11T10:53:13Z</time>
      </trkpt>
      <trkpt lat="45.40985" lon="0.30933">
        <ele>145</ele>
        <time>2025-04-11T10:53:16Z</time>
      </trkpt>
      <trkpt lat="45.4098" lon="0.3096">
        <ele>144</ele>
        <time>2025-04-11T10:53:19Z</time>
      </trkpt>
      <trkpt lat="45.40958" lon="0.31146">
        <ele>142</ele>
        <time>2025-04-11T10:53:43Z</time>
      </trkpt>
      <trkpt lat="45.40953" lon="0.31183">
        <ele>142</ele>
        <time>2025-04-11T10:53:48Z</time>
      </trkpt>
      <trkpt lat="45.40945" lon="0.31214">
        <ele>143</ele>
        <time>2025-04-11T10:53:52Z</time>
      </trkpt>
      <trkpt lat="45.40934" lon="0.31256">
        <ele>144</ele>
        <time>2025-04-11T10:53:57Z</time>
      </trkpt>
      <trkpt lat="45.40884" lon="0.31435">
        <ele>143</ele>
        <time>2025-04-11T10:54:21Z</time>
      </trkpt>
      <trkpt lat="45.4087" lon="0.31484">
        <ele>141</ele>
        <time>2025-04-11T10:54:28Z</time>
      </trkpt>
      <trkpt lat="45.40867" lon="0.31509">
        <ele>141</ele>
        <time>2025-04-11T10:54:31Z</time>
      </trkpt>
      <trkpt lat="45.40865" lon="0.31534">
        <ele>140</ele>
        <time>2025-04-11T10:54:34Z</time>
      </trkpt>
      <trkpt lat="45.40867" lon="0.31725">
        <ele>138</ele>
        <time>2025-04-11T10:54:58Z</time>
      </trkpt>
      <trkpt lat="45.40865" lon="0.31761">
        <ele>138</ele>
        <time>2025-04-11T10:55:03Z</time>
      </trkpt>
      <trkpt lat="45.40859" lon="0.31797">
        <ele>137</ele>
        <time>2025-04-11T10:55:07Z</time>
      </trkpt>
      <trkpt lat="45.40798" lon="0.32065">
        <ele>137</ele>
        <time>2025-04-11T10:55:43Z</time>
      </trkpt>
      <trkpt lat="45.40668" lon="0.32054">
        <ele>130</ele>
        <time>2025-04-11T10:56:06Z</time>
      </trkpt>
      <trkpt lat="45.40631" lon="0.32056">
        <ele>129</ele>
        <time>2025-04-11T10:56:12Z</time>
      </trkpt>
      <trkpt lat="45.40601" lon="0.3206">
        <ele>128</ele>
        <time>2025-04-11T10:56:18Z</time>
      </trkpt>
      <trkpt lat="45.40572" lon="0.32066">
        <ele>127</ele>
        <time>2025-04-11T10:56:23Z</time>
      </trkpt>
      <trkpt lat="45.40532" lon="0.32085">
        <ele>126</ele>
        <time>2025-04-11T10:56:30Z</time>
      </trkpt>
      <trkpt lat="45.40468" lon="0.32123">
        <ele>122</ele>
        <time>2025-04-11T10:56:43Z</time>
      </trkpt>
      <trkpt lat="45.40382" lon="0.32177">
        <ele>118</ele>
        <time>2025-04-11T10:56:59Z</time>
      </trkpt>
      <trkpt lat="45.40359" lon="0.32199">
        <ele>118</ele>
        <time>2025-04-11T10:57:04Z</time>
      </trkpt>
      <trkpt lat="45.40315" lon="0.32252">
        <ele>118</ele>
        <time>2025-04-11T10:57:15Z</time>
      </trkpt>
      <trkpt lat="45.40277" lon="0.32294">
        <ele>117</ele>
        <time>2025-04-11T10:57:23Z</time>
      </trkpt>
      <trkpt lat="45.40271" lon="0.32298">
        <ele>117</ele>
        <time>2025-04-11T10:57:24Z</time>
      </trkpt>
      <trkpt lat="45.40072" lon="0.32367">
        <ele>109</ele>
        <time>2025-04-11T10:58:01Z</time>
      </trkpt>
      <trkpt lat="45.40033" lon="0.32391">
        <ele>109</ele>
        <time>2025-04-11T10:58:08Z</time>
      </trkpt>
      <trkpt lat="45.40007" lon="0.32402">
        <ele>108</ele>
        <time>2025-04-11T10:58:13Z</time>
      </trkpt>
      <trkpt lat="45.39981" lon="0.32408">
        <ele>107</ele>
        <time>2025-04-11T10:58:18Z</time>
      </trkpt>
      <trkpt lat="45.39954" lon="0.32407">
        <ele>106</ele>
        <time>2025-04-11T10:58:23Z</time>
      </trkpt>
      <trkpt lat="45.3993" lon="0.32396">
        <ele>104</ele>
        <time>2025-04-11T10:58:27Z</time>
      </trkpt>
      <trkpt lat="45.39832" lon="0.32351">
        <ele>98</ele>
        <time>2025-04-11T10:58:45Z</time>
      </trkpt>
      <trkpt lat="45.39792" lon="0.32346">
        <ele>96</ele>
        <time>2025-04-11T10:58:53Z</time>
      </trkpt>
      <trkpt lat="45.39641" lon="0.32366">
        <ele>92</ele>
        <time>2025-04-11T10:59:20Z</time>
      </trkpt>
      <trkpt lat="45.39612" lon="0.32372">
        <ele>91</ele>
        <time>2025-04-11T10:59:25Z</time>
      </trkpt>
      <trkpt lat="45.39588" lon="0.32382">
        <ele>91</ele>
        <time>2025-04-11T10:59:29Z</time>
      </trkpt>
      <trkpt lat="45.39493" lon="0.32449">
        <ele>87</ele>
        <time>2025-04-11T10:59:48Z</time>
      </trkpt>
      <trkpt lat="45.39433" lon="0.32491">
        <ele>85</ele>
        <time>2025-04-11T11:00:00Z</time>
      </trkpt>
      <trkpt lat="45.39408" lon="0.32508">
        <ele>85</ele>
        <time>2025-04-11T11:00:05Z</time>
      </trkpt>
      <trkpt lat="45.39348" lon="0.3255">
        <ele>84</ele>
        <time>2025-04-11T11:00:17Z</time>
      </trkpt>
      <trkpt lat="45.3934" lon="0.32556">
        <ele>84</ele>
        <time>2025-04-11T11:00:18Z</time>
      </trkpt>
      <trkpt lat="45.39293" lon="0.32589">
        <ele>86</ele>
        <time>2025-04-11T11:00:28Z</time>
      </trkpt>
      <trkpt lat="45.39243" lon="0.32625">
        <ele>89</ele>
        <time>2025-04-11T11:00:38Z</time>
      </trkpt>
      <trkpt lat="45.39225" lon="0.32641">
        <ele>90</ele>
        <time>2025-04-11T11:00:42Z</time>
      </trkpt>
      <trkpt lat="45.39202" lon="0.32668">
        <ele>92</ele>
        <time>2025-04-11T11:00:47Z</time>
      </trkpt>
      <trkpt lat="45.39157" lon="0.32726">
        <ele>94</ele>
        <time>2025-04-11T11:00:58Z</time>
      </trkpt>
      <trkpt lat="45.3914" lon="0.32751">
        <ele>95</ele>
        <time>2025-04-11T11:01:02Z</time>
      </trkpt>
      <trkpt lat="45.39125" lon="0.32783">
        <ele>97</ele>
        <time>2025-04-11T11:01:07Z</time>
      </trkpt>
      <trkpt lat="45.39116" lon="0.32824">
        <ele>99</ele>
        <time>2025-04-11T11:01:12Z</time>
      </trkpt>
      <trkpt lat="45.39088" lon="0.32967">
        <ele>106</ele>
        <time>2025-04-11T11:01:31Z</time>
      </trkpt>
      <trkpt lat="45.39072" lon="0.3305">
        <ele>110</ele>
        <time>2025-04-11T11:01:41Z</time>
      </trkpt>
      <trkpt lat="45.39065" lon="0.33076">
        <ele>111</ele>
        <time>2025-04-11T11:01:45Z</time>
      </trkpt>
      <trkpt lat="45.39055" lon="0.33099">
        <ele>112</ele>
        <time>2025-04-11T11:01:48Z</time>
      </trkpt>
      <trkpt lat="45.39047" lon="0.33113">
        <ele>113</ele>
        <time>2025-04-11T11:01:51Z</time>
      </trkpt>
      <trkpt lat="45.39039" lon="0.33124">
        <ele>113</ele>
        <time>2025-04-11T11:01:53Z</time>
      </trkpt>
      <trkpt lat="45.3903" lon="0.33136">
        <ele>114</ele>
        <time>2025-04-11T11:01:55Z</time>
      </trkpt>
      <trkpt lat="45.3902" lon="0.33145">
        <ele>114</ele>
        <time>2025-04-11T11:01:57Z</time>
      </trkpt>
      <trkpt lat="45.39003" lon="0.33156">
        <ele>115</ele>
        <time>2025-04-11T11:02:00Z</time>
      </trkpt>
      <trkpt lat="45.38987" lon="0.33165">
        <ele>115</ele>
        <time>2025-04-11T11:02:03Z</time>
      </trkpt>
      <trkpt lat="45.38861" lon="0.33229">
        <ele>114</ele>
        <time>2025-04-11T11:02:27Z</time>
      </trkpt>
      <trkpt lat="45.38752" lon="0.33285">
        <ele>116</ele>
        <time>2025-04-11T11:02:48Z</time>
      </trkpt>
      <trkpt lat="45.38723" lon="0.33296">
        <ele>118</ele>
        <time>2025-04-11T11:02:53Z</time>
      </trkpt>
      <trkpt lat="45.387" lon="0.33294">
        <ele>120</ele>
        <time>2025-04-11T11:02:57Z</time>
      </trkpt>
      <trkpt lat="45.38678" lon="0.33283">
        <ele>121</ele>
        <time>2025-04-11T11:03:01Z</time>
      </trkpt>
      <trkpt lat="45.3866" lon="0.33271">
        <ele>121</ele>
        <time>2025-04-11T11:03:05Z</time>
      </trkpt>
      <trkpt lat="45.38639" lon="0.33261">
        <ele>122</ele>
        <time>2025-04-11T11:03:09Z</time>
      </trkpt>
      <trkpt lat="45.3862" lon="0.33258">
        <ele>123</ele>
        <time>2025-04-11T11:03:12Z</time>
      </trkpt>
      <trkpt lat="45.38597" lon="0.33258">
        <ele>124</ele>
        <time>2025-04-11T11:03:16Z</time>
      </trkpt>
      <trkpt lat="45.38551" lon="0.33263">
        <ele>126</ele>
        <time>2025-04-11T11:03:24Z</time>
      </trkpt>
      <trkpt lat="45.38513" lon="0.33266">
        <ele>127</ele>
        <time>2025-04-11T11:03:31Z</time>
      </trkpt>
      <trkpt lat="45.38451" lon="0.33272">
        <ele>132</ele>
        <time>2025-04-11T11:03:42Z</time>
      </trkpt>
      <trkpt lat="45.38412" lon="0.33269">
        <ele>135</ele>
        <time>2025-04-11T11:03:49Z</time>
      </trkpt>
      <trkpt lat="45.38359" lon="0.3326">
        <ele>138</ele>
        <time>2025-04-11T11:03:59Z</time>
      </trkpt>
      <trkpt lat="45.38327" lon="0.33252">
        <ele>140</ele>
        <time>2025-04-11T11:04:04Z</time>
      </trkpt>
      <trkpt lat="45.38288" lon="0.33251">
        <ele>142</ele>
        <time>2025-04-11T11:04:11Z</time>
      </trkpt>
      <trkpt lat="45.38215" lon="0.33268">
        <ele>145</ele>
        <time>2025-04-11T11:04:25Z</time>
      </trkpt>
      <trkpt lat="45.38131" lon="0.33251">
        <ele>150</ele>
        <time>2025-04-11T11:04:40Z</time>
      </trkpt>
      <trkpt lat="45.38072" lon="0.33235">
        <ele>153</ele>
        <time>2025-04-11T11:04:50Z</time>
      </trkpt>
      <trkpt lat="45.38044" lon="0.3323">
        <ele>154</ele>
        <time>2025-04-11T11:04:55Z</time>
      </trkpt>
      <trkpt lat="45.38022" lon="0.33234">
        <ele>156</ele>
        <time>2025-04-11T11:04:59Z</time>
      </trkpt>
      <trkpt lat="45.38003" lon="0.33247">
        <ele>157</ele>
        <time>2025-04-11T11:05:03Z</time>
      </trkpt>
      <trkpt lat="45.37973" lon="0.33273">
        <ele>157</ele>
        <time>2025-04-11T11:05:09Z</time>
      </trkpt>
      <trkpt lat="45.37907" lon="0.33316">
        <ele>158</ele>
        <time>2025-04-11T11:05:22Z</time>
      </trkpt>
      <trkpt lat="45.3781" lon="0.33389">
        <ele>161</ele>
        <time>2025-04-11T11:05:42Z</time>
      </trkpt>
      <trkpt lat="45.37786" lon="0.33421">
        <ele>162</ele>
        <time>2025-04-11T11:05:48Z</time>
      </trkpt>
      <trkpt lat="45.37774" lon="0.3345">
        <ele>162</ele>
        <time>2025-04-11T11:05:52Z</time>
      </trkpt>
      <trkpt lat="45.37758" lon="0.33547">
        <ele>160</ele>
        <time>2025-04-11T11:06:04Z</time>
      </trkpt>
      <trkpt lat="45.37748" lon="0.33569">
        <ele>160</ele>
        <time>2025-04-11T11:06:08Z</time>
      </trkpt>
      <trkpt lat="45.37727" lon="0.33592">
        <ele>160</ele>
        <time>2025-04-11T11:06:12Z</time>
      </trkpt>
      <trkpt lat="45.37681" lon="0.33626">
        <ele>161</ele>
        <time>2025-04-11T11:06:21Z</time>
      </trkpt>
      <trkpt lat="45.37653" lon="0.33654">
        <ele>159</ele>
        <time>2025-04-11T11:06:28Z</time>
      </trkpt>
      <trkpt lat="45.37609" lon="0.33772">
        <ele>152</ele>
        <time>2025-04-11T11:06:44Z</time>
      </trkpt>
      <trkpt lat="45.37601" lon="0.33789">
        <ele>152</ele>
        <time>2025-04-11T11:06:47Z</time>
      </trkpt>
      <trkpt lat="45.37587" lon="0.33812">
        <ele>153</ele>
        <time>2025-04-11T11:06:51Z</time>
      </trkpt>
      <trkpt lat="45.37565" lon="0.33843">
        <ele>152</ele>
        <time>2025-04-11T11:06:56Z</time>
      </trkpt>
      <trkpt lat="45.37544" lon="0.33867">
        <ele>151</ele>
        <time>2025-04-11T11:07:01Z</time>
      </trkpt>
      <trkpt lat="45.37529" lon="0.3388">
        <ele>150</ele>
        <time>2025-04-11T11:07:04Z</time>
      </trkpt>
      <trkpt lat="45.37512" lon="0.33893">
        <ele>150</ele>
        <time>2025-04-11T11:07:08Z</time>
      </trkpt>
      <trkpt lat="45.37496" lon="0.33903">
        <ele>150</ele>
        <time>2025-04-11T11:07:11Z</time>
      </trkpt>
      <trkpt lat="45.3741" lon="0.33937">
        <ele>146</ele>
        <time>2025-04-11T11:07:26Z</time>
      </trkpt>
      <trkpt lat="45.37391" lon="0.33942">
        <ele>145</ele>
        <time>2025-04-11T11:07:30Z</time>
      </trkpt>
      <trkpt lat="45.37372" lon="0.33945">
        <ele>145</ele>
        <time>2025-04-11T11:07:33Z</time>
      </trkpt>
      <trkpt lat="45.37322" lon="0.33943">
        <ele>141</ele>
        <time>2025-04-11T11:07:42Z</time>
      </trkpt>
      <trkpt lat="45.37302" lon="0.33942">
        <ele>140</ele>
        <time>2025-04-11T11:07:46Z</time>
      </trkpt>
      <trkpt lat="45.37281" lon="0.33947">
        <ele>138</ele>
        <time>2025-04-11T11:07:50Z</time>
      </trkpt>
      <trkpt lat="45.37268" lon="0.33956">
        <ele>138</ele>
        <time>2025-04-11T11:07:52Z</time>
      </trkpt>
      <trkpt lat="45.37256" lon="0.33967">
        <ele>138</ele>
        <time>2025-04-11T11:07:55Z</time>
      </trkpt>
      <trkpt lat="45.37237" lon="0.33993">
        <ele>137</ele>
        <time>2025-04-11T11:07:59Z</time>
      </trkpt>
      <trkpt lat="45.37126" lon="0.34154">
        <ele>131</ele>
        <time>2025-04-11T11:08:28Z</time>
      </trkpt>
      <trkpt lat="45.37101" lon="0.34182">
        <ele>129</ele>
        <time>2025-04-11T11:08:33Z</time>
      </trkpt>
      <trkpt lat="45.37078" lon="0.34204">
        <ele>127</ele>
        <time>2025-04-11T11:08:38Z</time>
      </trkpt>
      <trkpt lat="45.36708" lon="0.34479">
        <ele>109</ele>
        <time>2025-04-11T11:09:52Z</time>
      </trkpt>
      <trkpt lat="45.3668" lon="0.345">
        <ele>108</ele>
        <time>2025-04-11T11:09:58Z</time>
      </trkpt>
      <trkpt lat="45.36641" lon="0.34526">
        <ele>109</ele>
        <time>2025-04-11T11:10:06Z</time>
      </trkpt>
      <trkpt lat="45.3636" lon="0.34671">
        <ele>103</ele>
        <time>2025-04-11T11:10:59Z</time>
      </trkpt>
      <trkpt lat="45.36351" lon="0.34662">
        <ele>103</ele>
        <time>2025-04-11T11:11:01Z</time>
      </trkpt>
      <trkpt lat="45.36139" lon="0.34405">
        <ele>115</ele>
        <time>2025-04-11T11:11:50Z</time>
      </trkpt>
      <trkpt lat="45.36084" lon="0.34339">
        <ele>118</ele>
        <time>2025-04-11T11:12:03Z</time>
      </trkpt>
      <trkpt lat="45.36043" lon="0.34279">
        <ele>120</ele>
        <time>2025-04-11T11:12:14Z</time>
      </trkpt>
      <trkpt lat="45.3604" lon="0.34275">
        <ele>120</ele>
        <time>2025-04-11T11:12:14Z</time>
      </trkpt>
      <trkpt lat="45.35883" lon="0.34023">
        <ele>102</ele>
        <time>2025-04-11T11:12:57Z</time>
      </trkpt>
      <trkpt lat="45.3587" lon="0.34002">
        <ele>101</ele>
        <time>2025-04-11T11:13:00Z</time>
      </trkpt>
      <trkpt lat="45.35842" lon="0.33961">
        <ele>101</ele>
        <time>2025-04-11T11:13:07Z</time>
      </trkpt>
      <trkpt lat="45.35835" lon="0.33954">
        <ele>102</ele>
        <time>2025-04-11T11:13:09Z</time>
      </trkpt>
      <trkpt lat="45.3583" lon="0.33949">
        <ele>102</ele>
        <time>2025-04-11T11:13:10Z</time>
      </trkpt>
      <trkpt lat="45.35813" lon="0.33942">
        <ele>103</ele>
        <time>2025-04-11T11:13:13Z</time>
      </trkpt>
      <trkpt lat="45.35794" lon="0.33938">
        <ele>104</ele>
        <time>2025-04-11T11:13:16Z</time>
      </trkpt>
      <trkpt lat="45.35785" lon="0.33938">
        <ele>104</ele>
        <time>2025-04-11T11:13:18Z</time>
      </trkpt>
      <trkpt lat="45.35783" lon="0.33927">
        <ele>105</ele>
        <time>2025-04-11T11:13:19Z</time>
      </trkpt>
      <trkpt lat="45.35774" lon="0.33926">
        <ele>105</ele>
        <time>2025-04-11T11:13:21Z</time>
      </trkpt>
      <trkpt lat="45.35768" lon="0.33924">
        <ele>106</ele>
        <time>2025-04-11T11:13:22Z</time>
      </trkpt>
      <trkpt lat="45.35748" lon="0.33914">
        <ele>107</ele>
        <time>2025-04-11T11:13:26Z</time>
      </trkpt>
      <trkpt lat="45.35734" lon="0.33905">
        <ele>107</ele>
        <time>2025-04-11T11:13:29Z</time>
      </trkpt>
      <trkpt lat="45.35716" lon="0.33895">
        <ele>108</ele>
        <time>2025-04-11T11:13:32Z</time>
      </trkpt>
      <trkpt lat="45.35705" lon="0.33886">
        <ele>108</ele>
        <time>2025-04-11T11:13:34Z</time>
      </trkpt>
      <trkpt lat="45.35683" lon="0.33895">
        <ele>108</ele>
        <time>2025-04-11T11:13:38Z</time>
      </trkpt>
      <trkpt lat="45.35664" lon="0.33905">
        <ele>108</ele>
        <time>2025-04-11T11:13:42Z</time>
      </trkpt>
      <trkpt lat="45.35648" lon="0.3392">
        <ele>107</ele>
        <time>2025-04-11T11:13:45Z</time>
      </trkpt>
      <trkpt lat="45.35636" lon="0.33934">
        <ele>105</ele>
        <time>2025-04-11T11:13:48Z</time>
      </trkpt>
      <trkpt lat="45.35596" lon="0.33969">
        <ele>102</ele>
        <time>2025-04-11T11:13:56Z</time>
      </trkpt>
      <trkpt lat="45.35586" lon="0.33978">
        <ele>101</ele>
        <time>2025-04-11T11:13:59Z</time>
      </trkpt>
      <trkpt lat="45.35567" lon="0.33993">
        <ele>101</ele>
        <time>2025-04-11T11:14:02Z</time>
      </trkpt>
      <trkpt lat="45.35407" lon="0.34127">
        <ele>110</ele>
        <time>2025-04-11T11:14:35Z</time>
      </trkpt>
      <trkpt lat="45.35336" lon="0.34182">
        <ele>111</ele>
        <time>2025-04-11T11:14:50Z</time>
      </trkpt>
      <trkpt lat="45.35294" lon="0.34188">
        <ele>110</ele>
        <time>2025-04-11T11:14:57Z</time>
      </trkpt>
      <trkpt lat="45.35196" lon="0.34153">
        <ele>107</ele>
        <time>2025-04-11T11:15:15Z</time>
      </trkpt>
      <trkpt lat="45.35085" lon="0.34118">
        <ele>98</ele>
        <time>2025-04-11T11:15:36Z</time>
      </trkpt>
      <trkpt lat="45.35059" lon="0.34112">
        <ele>97</ele>
        <time>2025-04-11T11:15:40Z</time>
      </trkpt>
      <trkpt lat="45.35033" lon="0.3411">
        <ele>95</ele>
        <time>2025-04-11T11:15:45Z</time>
      </trkpt>
      <trkpt lat="45.34949" lon="0.34115">
        <ele>95</ele>
        <time>2025-04-11T11:16:00Z</time>
      </trkpt>
      <trkpt lat="45.34845" lon="0.34136">
        <ele>97</ele>
        <time>2025-04-11T11:16:19Z</time>
      </trkpt>
      <trkpt lat="45.34793" lon="0.34138">
        <ele>98</ele>
        <time>2025-04-11T11:16:28Z</time>
      </trkpt>
      <trkpt lat="45.34739" lon="0.34133">
        <ele>97</ele>
        <time>2025-04-11T11:16:37Z</time>
      </trkpt>
      <trkpt lat="45.34644" lon="0.34116">
        <ele>95</ele>
        <time>2025-04-11T11:16:54Z</time>
      </trkpt>
      <trkpt lat="45.3462" lon="0.34112">
        <ele>95</ele>
        <time>2025-04-11T11:16:59Z</time>
      </trkpt>
      <trkpt lat="45.34616" lon="0.34113">
        <ele>95</ele>
        <time>2025-04-11T11:16:59Z</time>
      </trkpt>
      <trkpt lat="45.34606" lon="0.341">
        <ele>95</ele>
        <time>2025-04-11T11:17:02Z</time>
      </trkpt>
      <trkpt lat="45.34603" lon="0.34104">
        <ele>95</ele>
        <time>2025-04-11T11:17:03Z</time>
      </trkpt>
      <trkpt lat="45.34596" lon="0.34105">
        <ele>94</ele>
        <time>2025-04-11T11:17:04Z</time>
      </trkpt>
      <trkpt lat="45.34476" lon="0.34069">
        <ele>94</ele>
        <time>2025-04-11T11:17:26Z</time>
      </trkpt>
      <trkpt lat="45.34267" lon="0.34029">
        <ele>88</ele>
        <time>2025-04-11T11:18:03Z</time>
      </trkpt>
      <trkpt lat="45.34085" lon="0.33989">
        <ele>86</ele>
        <time>2025-04-11T11:18:36Z</time>
      </trkpt>
      <trkpt lat="45.34033" lon="0.33977">
        <ele>85</ele>
        <time>2025-04-11T11:18:45Z</time>
      </trkpt>
      <trkpt lat="45.34004" lon="0.33967">
        <ele>85</ele>
        <time>2025-04-11T11:18:51Z</time>
      </trkpt>
      <trkpt lat="45.33893" lon="0.33879">
        <ele>86</ele>
        <time>2025-04-11T11:19:13Z</time>
      </trkpt>
      <trkpt lat="45.33818" lon="0.3382">
        <ele>83</ele>
        <time>2025-04-11T11:19:29Z</time>
      </trkpt>
      <trkpt lat="45.33767" lon="0.33788">
        <ele>82</ele>
        <time>2025-04-11T11:19:38Z</time>
      </trkpt>
      <trkpt lat="45.33757" lon="0.33778">
        <ele>82</ele>
        <time>2025-04-11T11:19:41Z</time>
      </trkpt>
      <trkpt lat="45.33664" lon="0.33739">
        <ele>82</ele>
        <time>2025-04-11T11:19:58Z</time>
      </trkpt>
      <trkpt lat="45.3361" lon="0.33696">
        <ele>82</ele>
        <time>2025-04-11T11:20:09Z</time>
      </trkpt>
      <trkpt lat="45.33533" lon="0.33606">
        <ele>82</ele>
        <time>2025-04-11T11:20:27Z</time>
      </trkpt>
      <trkpt lat="45.33479" lon="0.33539">
        <ele>81</ele>
        <time>2025-04-11T11:20:39Z</time>
      </trkpt>
      <trkpt lat="45.33426" lon="0.33491">
        <ele>81</ele>
        <time>2025-04-11T11:20:51Z</time>
      </trkpt>
      <trkpt lat="45.33375" lon="0.33448">
        <ele>83</ele>
        <time>2025-04-11T11:21:01Z</time>
      </trkpt>
      <trkpt lat="45.3334" lon="0.33415">
        <ele>84</ele>
        <time>2025-04-11T11:21:09Z</time>
      </trkpt>
      <trkpt lat="45.33293" lon="0.33392">
        <ele>85</ele>
        <time>2025-04-11T11:21:17Z</time>
      </trkpt>
      <trkpt lat="45.33186" lon="0.33366">
        <ele>82</ele>
        <time>2025-04-11T11:21:37Z</time>
      </trkpt>
      <trkpt lat="45.33127" lon="0.33362">
        <ele>81</ele>
        <time>2025-04-11T11:21:47Z</time>
      </trkpt>
      <trkpt lat="45.3307" lon="0.33345">
        <ele>82</ele>
        <time>2025-04-11T11:21:58Z</time>
      </trkpt>
      <trkpt lat="45.33019" lon="0.33336">
        <ele>82</ele>
        <time>2025-04-11T11:22:07Z</time>
      </trkpt>
      <trkpt lat="45.32964" lon="0.33314">
        <ele>81</ele>
        <time>2025-04-11T11:22:17Z</time>
      </trkpt>
      <trkpt lat="45.32957" lon="0.33313">
        <ele>81</ele>
        <time>2025-04-11T11:22:18Z</time>
      </trkpt>
      <trkpt lat="45.32869" lon="0.33262">
        <ele>79</ele>
        <time>2025-04-11T11:22:35Z</time>
      </trkpt>
      <trkpt lat="45.32791" lon="0.33203">
        <ele>78</ele>
        <time>2025-04-11T11:22:51Z</time>
      </trkpt>
      <trkpt lat="45.32667" lon="0.33084">
        <ele>77</ele>
        <time>2025-04-11T11:23:17Z</time>
      </trkpt>
      <trkpt lat="45.32627" lon="0.33048">
        <ele>77</ele>
        <time>2025-04-11T11:23:26Z</time>
      </trkpt>
      <trkpt lat="45.32575" lon="0.32988">
        <ele>75</ele>
        <time>2025-04-11T11:23:38Z</time>
      </trkpt>
      <trkpt lat="45.32532" lon="0.32934">
        <ele>76</ele>
        <time>2025-04-11T11:23:48Z</time>
      </trkpt>
      <trkpt lat="45.32482" lon="0.32871">
        <ele>77</ele>
        <time>2025-04-11T11:24:00Z</time>
      </trkpt>
      <trkpt lat="45.32454" lon="0.32841">
        <ele>77</ele>
        <time>2025-04-11T11:24:06Z</time>
      </trkpt>
      <trkpt lat="45.32408" lon="0.32809">
        <ele>77</ele>
        <time>2025-04-11T11:24:15Z</time>
      </trkpt>
      <trkpt lat="45.3237" lon="0.32768">
        <ele>77</ele>
        <time>2025-04-11T11:24:24Z</time>
      </trkpt>
      <trkpt lat="45.32327" lon="0.32722">
        <ele>76</ele>
        <time>2025-04-11T11:24:33Z</time>
      </trkpt>
      <trkpt lat="45.32266" lon="0.32699">
        <ele>75</ele>
        <time>2025-04-11T11:24:44Z</time>
      </trkpt>
      <trkpt lat="45.3222" lon="0.32676">
        <ele>73</ele>
        <time>2025-04-11T11:24:53Z</time>
      </trkpt>
      <trkpt lat="45.32178" lon="0.32653">
        <ele>72</ele>
        <time>2025-04-11T11:25:01Z</time>
      </trkpt>
      <trkpt lat="45.32155" lon="0.32636">
        <ele>72</ele>
        <time>2025-04-11T11:25:06Z</time>
      </trkpt>
      <trkpt lat="45.32144" lon="0.32623">
        <ele>73</ele>
        <time>2025-04-11T11:25:08Z</time>
      </trkpt>
      <trkpt lat="45.32118" lon="0.3262">
        <ele>72</ele>
        <time>2025-04-11T11:25:13Z</time>
      </trkpt>
      <trkpt lat="45.32074" lon="0.32643">
        <ele>70</ele>
        <time>2025-04-11T11:25:21Z</time>
      </trkpt>
      <trkpt lat="45.32038" lon="0.32686">
        <ele>70</ele>
        <time>2025-04-11T11:25:30Z</time>
      </trkpt>
      <trkpt lat="45.32029" lon="0.327">
        <ele>70</ele>
        <time>2025-04-11T11:25:32Z</time>
      </trkpt>
      <trkpt lat="45.32026" lon="0.32705">
        <ele>70</ele>
        <time>2025-04-11T11:25:33Z</time>
      </trkpt>
      <trkpt lat="45.31995" lon="0.32753">
        <ele>71</ele>
        <time>2025-04-11T11:25:41Z</time>
      </trkpt>
      <trkpt lat="45.31976" lon="0.32805">
        <ele>73</ele>
        <time>2025-04-11T11:25:48Z</time>
      </trkpt>
      <trkpt lat="45.3197" lon="0.32857">
        <ele>73</ele>
        <time>2025-04-11T11:25:55Z</time>
      </trkpt>
      <trkpt lat="45.31958" lon="0.32833">
        <ele>73</ele>
        <time>2025-04-11T11:25:59Z</time>
      </trkpt>
      <trkpt lat="45.31945" lon="0.32776">
        <ele>72</ele>
        <time>2025-04-11T11:26:06Z</time>
      </trkpt>
      <trkpt lat="45.31936" lon="0.32772">
        <ele>72</ele>
        <time>2025-04-11T11:26:08Z</time>
      </trkpt>
      <trkpt lat="45.31931" lon="0.3277">
        <ele>72</ele>
        <time>2025-04-11T11:26:09Z</time>
      </trkpt>
      <trkpt lat="45.31896" lon="0.32792">
        <ele>73</ele>
        <time>2025-04-11T11:26:16Z</time>
      </trkpt>
      <trkpt lat="45.31881" lon="0.32792">
        <ele>74</ele>
        <time>2025-04-11T11:26:18Z</time>
      </trkpt>
      <trkpt lat="45.31865" lon="0.32767">
        <ele>74</ele>
        <time>2025-04-11T11:26:22Z</time>
      </trkpt>
      <trkpt lat="45.31858" lon="0.32767">
        <ele>75</ele>
        <time>2025-04-11T11:26:24Z</time>
      </trkpt>
      <trkpt lat="45.31847" lon="0.32766">
        <ele>75</ele>
        <time>2025-04-11T11:26:26Z</time>
      </trkpt>
      <trkpt lat="45.31737" lon="0.32819">
        <ele>78</ele>
        <time>2025-04-11T11:26:46Z</time>
      </trkpt>
      <trkpt lat="45.31625" lon="0.32876">
        <ele>84</ele>
        <time>2025-04-11T11:27:07Z</time>
      </trkpt>
      <trkpt lat="45.31579" lon="0.32916">
        <ele>87</ele>
        <time>2025-04-11T11:27:17Z</time>
      </trkpt>
      <trkpt lat="45.31539" lon="0.32935">
        <ele>88</ele>
        <time>2025-04-11T11:27:25Z</time>
      </trkpt>
      <trkpt lat="45.31365" lon="0.3298">
        <ele>91</ele>
        <time>2025-04-11T11:27:56Z</time>
      </trkpt>
      <trkpt lat="45.31349" lon="0.32983">
        <ele>92</ele>
        <time>2025-04-11T11:27:59Z</time>
      </trkpt>
      <trkpt lat="45.31258" lon="0.32996">
        <ele>97</ele>
        <time>2025-04-11T11:28:15Z</time>
      </trkpt>
      <trkpt lat="45.31132" lon="0.33051">
        <ele>108</ele>
        <time>2025-04-11T11:28:39Z</time>
      </trkpt>
      <trkpt lat="45.31055" lon="0.33082">
        <ele>117</ele>
        <time>2025-04-11T11:28:53Z</time>
      </trkpt>
      <trkpt lat="45.31035" lon="0.3308">
        <ele>120</ele>
        <time>2025-04-11T11:28:56Z</time>
      </trkpt>
      <trkpt lat="45.30998" lon="0.33066">
        <ele>123</ele>
        <time>2025-04-11T11:29:03Z</time>
      </trkpt>
      <trkpt lat="45.30931" lon="0.33042">
        <ele>127</ele>
        <time>2025-04-11T11:29:16Z</time>
      </trkpt>
      <trkpt lat="45.30868" lon="0.33037">
        <ele>129</ele>
        <time>2025-04-11T11:29:27Z</time>
      </trkpt>
      <trkpt lat="45.30816" lon="0.33062">
        <ele>132</ele>
        <time>2025-04-11T11:29:37Z</time>
      </trkpt>
      <trkpt lat="45.3075" lon="0.33091">
        <ele>132</ele>
        <time>2025-04-11T11:29:49Z</time>
      </trkpt>
      <trkpt lat="45.30576" lon="0.33132">
        <ele>132</ele>
        <time>2025-04-11T11:30:20Z</time>
      </trkpt>
      <trkpt lat="45.30568" lon="0.33136">
        <ele>132</ele>
        <time>2025-04-11T11:30:22Z</time>
      </trkpt>
      <trkpt lat="45.30474" lon="0.33206">
        <ele>135</ele>
        <time>2025-04-11T11:30:41Z</time>
      </trkpt>
      <trkpt lat="45.30419" lon="0.33268">
        <ele>136</ele>
        <time>2025-04-11T11:30:53Z</time>
      </trkpt>
      <trkpt lat="45.30344" lon="0.334">
        <ele>136</ele>
        <time>2025-04-11T11:31:14Z</time>
      </trkpt>
      <trkpt lat="45.303" lon="0.33453">
        <ele>138</ele>
        <time>2025-04-11T11:31:25Z</time>
      </trkpt>
      <trkpt lat="45.30273" lon="0.33461">
        <ele>138</ele>
        <time>2025-04-11T11:31:29Z</time>
      </trkpt>
      <trkpt lat="45.30141" lon="0.3345">
        <ele>141</ele>
        <time>2025-04-11T11:31:53Z</time>
      </trkpt>
      <trkpt lat="45.29988" lon="0.33447">
        <ele>143</ele>
        <time>2025-04-11T11:32:20Z</time>
      </trkpt>
      <trkpt lat="45.29922" lon="0.33468">
        <ele>142</ele>
        <time>2025-04-11T11:32:32Z</time>
      </trkpt>
      <trkpt lat="45.29852" lon="0.33342">
        <ele>144</ele>
        <time>2025-04-11T11:32:52Z</time>
      </trkpt>
      <trkpt lat="45.29766" lon="0.33159">
        <ele>141</ele>
        <time>2025-04-11T11:33:20Z</time>
      </trkpt>
      <trkpt lat="45.29671" lon="0.32927">
        <ele>140</ele>
        <time>2025-04-11T11:33:54Z</time>
      </trkpt>
      <trkpt lat="45.29655" lon="0.32892">
        <ele>141</ele>
        <time>2025-04-11T11:33:59Z</time>
      </trkpt>
      <trkpt lat="45.29644" lon="0.32875">
        <ele>141</ele>
        <time>2025-04-11T11:34:02Z</time>
      </trkpt>
      <trkpt lat="45.29551" lon="0.32792">
        <ele>144</ele>
        <time>2025-04-11T11:34:21Z</time>
      </trkpt>
      <trkpt lat="45.29517" lon="0.32761">
        <ele>145</ele>
        <time>2025-04-11T11:34:28Z</time>
      </trkpt>
      <trkpt lat="45.29482" lon="0.32737">
        <ele>145</ele>
        <time>2025-04-11T11:34:35Z</time>
      </trkpt>
      <trkpt lat="45.29439" lon="0.32714">
        <ele>144</ele>
        <time>2025-04-11T11:34:43Z</time>
      </trkpt>
      <trkpt lat="45.29345" lon="0.32664">
        <ele>142</ele>
        <time>2025-04-11T11:35:01Z</time>
      </trkpt>
      <trkpt lat="45.29315" lon="0.32647">
        <ele>141</ele>
        <time>2025-04-11T11:35:07Z</time>
      </trkpt>
      <trkpt lat="45.29289" lon="0.32625">
        <ele>141</ele>
        <time>2025-04-11T11:35:12Z</time>
      </trkpt>
      <trkpt lat="45.29261" lon="0.32597">
        <ele>141</ele>
        <time>2025-04-11T11:35:19Z</time>
      </trkpt>
      <trkpt lat="45.29241" lon="0.32572">
        <ele>142</ele>
        <time>2025-04-11T11:35:23Z</time>
      </trkpt>
      <trkpt lat="45.29224" lon="0.32547">
        <ele>141</ele>
        <time>2025-04-11T11:35:28Z</time>
      </trkpt>
      <trkpt lat="45.29208" lon="0.3252">
        <ele>141</ele>
        <time>2025-04-11T11:35:32Z</time>
      </trkpt>
      <trkpt lat="45.29185" lon="0.32475">
        <ele>143</ele>
        <time>2025-04-11T11:35:39Z</time>
      </trkpt>
      <trkpt lat="45.29174" lon="0.32449">
        <ele>145</ele>
        <time>2025-04-11T11:35:43Z</time>
      </trkpt>
      <trkpt lat="45.29164" lon="0.32422">
        <ele>146</ele>
        <time>2025-04-11T11:35:47Z</time>
      </trkpt>
      <trkpt lat="45.29121" lon="0.32275">
        <ele>145</ele>
        <time>2025-04-11T11:36:07Z</time>
      </trkpt>
      <trkpt lat="45.2912" lon="0.32271">
        <ele>145</ele>
        <time>2025-04-11T11:36:07Z</time>
      </trkpt>
      <trkpt lat="45.28992" lon="0.31843">
        <ele>132</ele>
        <time>2025-04-11T11:37:05Z</time>
      </trkpt>
      <trkpt lat="45.28935" lon="0.31658">
        <ele>127</ele>
        <time>2025-04-11T11:37:31Z</time>
      </trkpt>
      <trkpt lat="45.28924" lon="0.31607">
        <ele>126</ele>
        <time>2025-04-11T11:37:37Z</time>
      </trkpt>
      <trkpt lat="45.28919" lon="0.31566">
        <ele>126</ele>
        <time>2025-04-11T11:37:42Z</time>
      </trkpt>
      <trkpt lat="45.28918" lon="0.31519">
        <ele>125</ele>
        <time>2025-04-11T11:37:48Z</time>
      </trkpt>
      <trkpt lat="45.28907" lon="0.31499">
        <ele>125</ele>
        <time>2025-04-11T11:37:52Z</time>
      </trkpt>
      <trkpt lat="45.28842" lon="0.31433">
        <ele>126</ele>
        <time>2025-04-11T11:38:06Z</time>
      </trkpt>
      <trkpt lat="45.28728" lon="0.3128">
        <ele>127</ele>
        <time>2025-04-11T11:38:34Z</time>
      </trkpt>
      <trkpt lat="45.2869" lon="0.31216">
        <ele>127</ele>
        <time>2025-04-11T11:38:44Z</time>
      </trkpt>
      <trkpt lat="45.28679" lon="0.312">
        <ele>127</ele>
        <time>2025-04-11T11:38:47Z</time>
      </trkpt>
      <trkpt lat="45.28663" lon="0.31178">
        <ele>127</ele>
        <time>2025-04-11T11:38:51Z</time>
      </trkpt>
      <trkpt lat="45.28633" lon="0.31141">
        <ele>127</ele>
        <time>2025-04-11T11:38:58Z</time>
      </trkpt>
      <trkpt lat="45.28617" lon="0.31119">
        <ele>128</ele>
        <time>2025-04-11T11:39:02Z</time>
      </trkpt>
      <trkpt lat="45.28606" lon="0.31097">
        <ele>128</ele>
        <time>2025-04-11T11:39:05Z</time>
      </trkpt>
      <trkpt lat="45.28597" lon="0.31077">
        <ele>128</ele>
        <time>2025-04-11T11:39:08Z</time>
      </trkpt>
      <trkpt lat="45.28574" lon="0.31007">
        <ele>128</ele>
        <time>2025-04-11T11:39:18Z</time>
      </trkpt>
      <trkpt lat="45.28566" lon="0.30992">
        <ele>128</ele>
        <time>2025-04-11T11:39:20Z</time>
      </trkpt>
      <trkpt lat="45.28562" lon="0.30989">
        <ele>128</ele>
        <time>2025-04-11T11:39:21Z</time>
      </trkpt>
      <trkpt lat="45.28557" lon="0.31002">
        <ele>127</ele>
        <time>2025-04-11T11:39:23Z</time>
      </trkpt>
      <trkpt lat="45.28548" lon="0.31018">
        <ele>127</ele>
        <time>2025-04-11T11:39:25Z</time>
      </trkpt>
      <trkpt lat="45.28539" lon="0.31031">
        <ele>127</ele>
        <time>2025-04-11T11:39:28Z</time>
      </trkpt>
      <trkpt lat="45.28527" lon="0.31043">
        <ele>127</ele>
        <time>2025-04-11T11:39:30Z</time>
      </trkpt>
      <trkpt lat="45.28516" lon="0.31052">
        <ele>127</ele>
        <time>2025-04-11T11:39:33Z</time>
      </trkpt>
      <trkpt lat="45.28503" lon="0.3106">
        <ele>127</ele>
        <time>2025-04-11T11:39:35Z</time>
      </trkpt>
      <trkpt lat="45.2849" lon="0.31064">
        <ele>126</ele>
        <time>2025-04-11T11:39:38Z</time>
      </trkpt>
      <trkpt lat="45.28478" lon="0.31066">
        <ele>125</ele>
        <time>2025-04-11T11:39:40Z</time>
      </trkpt>
      <trkpt lat="45.28466" lon="0.31065">
        <ele>125</ele>
        <time>2025-04-11T11:39:42Z</time>
      </trkpt>
      <trkpt lat="45.28451" lon="0.31061">
        <ele>124</ele>
        <time>2025-04-11T11:39:45Z</time>
      </trkpt>
      <trkpt lat="45.2844" lon="0.31055">
        <ele>123</ele>
        <time>2025-04-11T11:39:47Z</time>
      </trkpt>
      <trkpt lat="45.28427" lon="0.31045">
        <ele>122</ele>
        <time>2025-04-11T11:39:49Z</time>
      </trkpt>
      <trkpt lat="45.28386" lon="0.31008">
        <ele>120</ele>
        <time>2025-04-11T11:39:58Z</time>
      </trkpt>
      <trkpt lat="45.28372" lon="0.30999">
        <ele>119</ele>
        <time>2025-04-11T11:40:01Z</time>
      </trkpt>
      <trkpt lat="45.2836" lon="0.30995">
        <ele>118</ele>
        <time>2025-04-11T11:40:03Z</time>
      </trkpt>
      <trkpt lat="45.28347" lon="0.30994">
        <ele>117</ele>
        <time>2025-04-11T11:40:05Z</time>
      </trkpt>
      <trkpt lat="45.28335" lon="0.30996">
        <ele>116</ele>
        <time>2025-04-11T11:40:07Z</time>
      </trkpt>
      <trkpt lat="45.28324" lon="0.31002">
        <ele>116</ele>
        <time>2025-04-11T11:40:09Z</time>
      </trkpt>
      <trkpt lat="45.28314" lon="0.3101">
        <ele>115</ele>
        <time>2025-04-11T11:40:11Z</time>
      </trkpt>
      <trkpt lat="45.28304" lon="0.31022">
        <ele>115</ele>
        <time>2025-04-11T11:40:14Z</time>
      </trkpt>
      <trkpt lat="45.2829" lon="0.31042">
        <ele>113</ele>
        <time>2025-04-11T11:40:17Z</time>
      </trkpt>
      <trkpt lat="45.28258" lon="0.31097">
        <ele>109</ele>
        <time>2025-04-11T11:40:26Z</time>
      </trkpt>
      <trkpt lat="45.2822" lon="0.31162">
        <ele>103</ele>
        <time>2025-04-11T11:40:37Z</time>
      </trkpt>
      <trkpt lat="45.28212" lon="0.31172">
        <ele>102</ele>
        <time>2025-04-11T11:40:39Z</time>
      </trkpt>
      <trkpt lat="45.28204" lon="0.31178">
        <ele>101</ele>
        <time>2025-04-11T11:40:40Z</time>
      </trkpt>
      <trkpt lat="45.28192" lon="0.31184">
        <ele>100</ele>
        <time>2025-04-11T11:40:43Z</time>
      </trkpt>
      <trkpt lat="45.28175" lon="0.31183">
        <ele>100</ele>
        <time>2025-04-11T11:40:46Z</time>
      </trkpt>
      <trkpt lat="45.28157" lon="0.31176">
        <ele>99</ele>
        <time>2025-04-11T11:40:49Z</time>
      </trkpt>
      <trkpt lat="45.28122" lon="0.31156">
        <ele>97</ele>
        <time>2025-04-11T11:40:56Z</time>
      </trkpt>
      <trkpt lat="45.2808" lon="0.31128">
        <ele>95</ele>
        <time>2025-04-11T11:41:04Z</time>
      </trkpt>
      <trkpt lat="45.28054" lon="0.31115">
        <ele>95</ele>
        <time>2025-04-11T11:41:09Z</time>
      </trkpt>
      <trkpt lat="45.28037" lon="0.3111">
        <ele>94</ele>
        <time>2025-04-11T11:41:12Z</time>
      </trkpt>
      <trkpt lat="45.28014" lon="0.31108">
        <ele>93</ele>
        <time>2025-04-11T11:41:16Z</time>
      </trkpt>
      <trkpt lat="45.27991" lon="0.3111">
        <ele>93</ele>
        <time>2025-04-11T11:41:20Z</time>
      </trkpt>
      <trkpt lat="45.27953" lon="0.31118">
        <ele>91</ele>
        <time>2025-04-11T11:41:27Z</time>
      </trkpt>
      <trkpt lat="45.27922" lon="0.3113">
        <ele>90</ele>
        <time>2025-04-11T11:41:33Z</time>
      </trkpt>
      <trkpt lat="45.2789" lon="0.31148">
        <ele>89</ele>
        <time>2025-04-11T11:41:39Z</time>
      </trkpt>
      <trkpt lat="45.27863" lon="0.31169">
        <ele>89</ele>
        <time>2025-04-11T11:41:44Z</time>
      </trkpt>
      <trkpt lat="45.27848" lon="0.31184">
        <ele>88</ele>
        <time>2025-04-11T11:41:48Z</time>
      </trkpt>
      <trkpt lat="45.27807" lon="0.31242">
        <ele>88</ele>
        <time>2025-04-11T11:41:58Z</time>
      </trkpt>
      <trkpt lat="45.27757" lon="0.31314">
        <ele>87</ele>
        <time>2025-04-11T11:42:10Z</time>
      </trkpt>
      <trkpt lat="45.27735" lon="0.31337">
        <ele>86</ele>
        <time>2025-04-11T11:42:15Z</time>
      </trkpt>
      <trkpt lat="45.27724" lon="0.31347">
        <ele>86</ele>
        <time>2025-04-11T11:42:18Z</time>
      </trkpt>
      <trkpt lat="45.27607" lon="0.31456">
        <ele>82</ele>
        <time>2025-04-11T11:42:43Z</time>
      </trkpt>
      <trkpt lat="45.27591" lon="0.31471">
        <ele>81</ele>
        <time>2025-04-11T11:42:46Z</time>
      </trkpt>
      <trkpt lat="45.27563" lon="0.31494">
        <ele>79</ele>
        <time>2025-04-11T11:42:52Z</time>
      </trkpt>
      <trkpt lat="45.27414" lon="0.31578">
        <ele>75</ele>
        <time>2025-04-11T11:43:20Z</time>
      </trkpt>
      <trkpt lat="45.27393" lon="0.31591">
        <ele>75</ele>
        <time>2025-04-11T11:43:24Z</time>
      </trkpt>
      <trkpt lat="45.27248" lon="0.31672">
        <ele>74</ele>
        <time>2025-04-11T11:43:52Z</time>
      </trkpt>
      <trkpt lat="45.27068" lon="0.31774">
        <ele>72</ele>
        <time>2025-04-11T11:44:26Z</time>
      </trkpt>
      <trkpt lat="45.26941" lon="0.31846">
        <ele>69</ele>
        <time>2025-04-11T11:44:51Z</time>
      </trkpt>
      <trkpt lat="45.26879" lon="0.31879">
        <ele>68</ele>
        <time>2025-04-11T11:45:03Z</time>
      </trkpt>
      <trkpt lat="45.2684" lon="0.31903">
        <ele>67</ele>
        <time>2025-04-11T11:45:10Z</time>
      </trkpt>
      <trkpt lat="45.26824" lon="0.31912">
        <ele>67</ele>
        <time>2025-04-11T11:45:13Z</time>
      </trkpt>
      <trkpt lat="45.26792" lon="0.31939">
        <ele>65</ele>
        <time>2025-04-11T11:45:20Z</time>
      </trkpt>
      <trkpt lat="45.2676" lon="0.31976">
        <ele>64</ele>
        <time>2025-04-11T11:45:27Z</time>
      </trkpt>
      <trkpt lat="45.26757" lon="0.31982">
        <ele>64</ele>
        <time>2025-04-11T11:45:28Z</time>
      </trkpt>
      <trkpt lat="45.26751" lon="0.31991">
        <ele>64</ele>
        <time>2025-04-11T11:45:30Z</time>
      </trkpt>
      <trkpt lat="45.26745" lon="0.32">
        <ele>64</ele>
        <time>2025-04-11T11:45:31Z</time>
      </trkpt>
      <trkpt lat="45.26734" lon="0.32019">
        <ele>64</ele>
        <time>2025-04-11T11:45:34Z</time>
      </trkpt>
      <trkpt lat="45.26709" lon="0.32077">
        <ele>66</ele>
        <time>2025-04-11T11:45:43Z</time>
      </trkpt>
      <trkpt lat="45.26691" lon="0.32136">
        <ele>69</ele>
        <time>2025-04-11T11:45:51Z</time>
      </trkpt>
      <trkpt lat="45.26683" lon="0.3219">
        <ele>72</ele>
        <time>2025-04-11T11:45:58Z</time>
      </trkpt>
      <trkpt lat="45.26679" lon="0.32232">
        <ele>74</ele>
        <time>2025-04-11T11:46:03Z</time>
      </trkpt>
      <trkpt lat="45.26679" lon="0.32253">
        <ele>75</ele>
        <time>2025-04-11T11:46:06Z</time>
      </trkpt>
      <trkpt lat="45.26682" lon="0.32314">
        <ele>77</ele>
        <time>2025-04-11T11:46:13Z</time>
      </trkpt>
      <trkpt lat="45.267" lon="0.32505">
        <ele>80</ele>
        <time>2025-04-11T11:46:38Z</time>
      </trkpt>
      <trkpt lat="45.26703" lon="0.32547">
        <ele>81</ele>
        <time>2025-04-11T11:46:43Z</time>
      </trkpt>
      <trkpt lat="45.26704" lon="0.32595">
        <ele>81</ele>
        <time>2025-04-11T11:46:49Z</time>
      </trkpt>
      <trkpt lat="45.26707" lon="0.32679">
        <ele>80</ele>
        <time>2025-04-11T11:46:59Z</time>
      </trkpt>
      <trkpt lat="45.26707" lon="0.32714">
        <ele>80</ele>
        <time>2025-04-11T11:47:04Z</time>
      </trkpt>
      <trkpt lat="45.26706" lon="0.32758">
        <ele>80</ele>
        <time>2025-04-11T11:47:09Z</time>
      </trkpt>
      <trkpt lat="45.26697" lon="0.32984">
        <ele>78</ele>
        <time>2025-04-11T11:47:38Z</time>
      </trkpt>
      <trkpt lat="45.26693" lon="0.33051">
        <ele>77</ele>
        <time>2025-04-11T11:47:46Z</time>
      </trkpt>
      <trkpt lat="45.26688" lon="0.33088">
        <ele>76</ele>
        <time>2025-04-11T11:47:51Z</time>
      </trkpt>
      <trkpt lat="45.26645" lon="0.33358">
        <ele>70</ele>
        <time>2025-04-11T11:48:25Z</time>
      </trkpt>
      <trkpt lat="45.26637" lon="0.3339">
        <ele>70</ele>
        <time>2025-04-11T11:48:30Z</time>
      </trkpt>
      <trkpt lat="45.26624" lon="0.33424">
        <ele>70</ele>
        <time>2025-04-11T11:48:34Z</time>
      </trkpt>
      <trkpt lat="45.26592" lon="0.33497">
        <ele>69</ele>
        <time>2025-04-11T11:48:45Z</time>
      </trkpt>
      <trkpt lat="45.26582" lon="0.33518">
        <ele>69</ele>
        <time>2025-04-11T11:48:48Z</time>
      </trkpt>
      <trkpt lat="45.26571" lon="0.33534">
        <ele>69</ele>
        <time>2025-04-11T11:48:51Z</time>
      </trkpt>
      <trkpt lat="45.26555" lon="0.33552">
        <ele>68</ele>
        <time>2025-04-11T11:48:55Z</time>
      </trkpt>
      <trkpt lat="45.26502" lon="0.33593">
        <ele>66</ele>
        <time>2025-04-11T11:49:06Z</time>
      </trkpt>
      <trkpt lat="45.26394" lon="0.33673">
        <ele>62</ele>
        <time>2025-04-11T11:49:27Z</time>
      </trkpt>
      <trkpt lat="45.26363" lon="0.337">
        <ele>61</ele>
        <time>2025-04-11T11:49:34Z</time>
      </trkpt>
      <trkpt lat="45.26323" lon="0.3374">
        <ele>61</ele>
        <time>2025-04-11T11:49:42Z</time>
      </trkpt>
      <trkpt lat="45.26293" lon="0.33777">
        <ele>62</ele>
        <time>2025-04-11T11:49:50Z</time>
      </trkpt>
      <trkpt lat="45.26263" lon="0.33819">
        <ele>61</ele>
        <time>2025-04-11T11:49:57Z</time>
      </trkpt>
      <trkpt lat="45.26234" lon="0.33868">
        <ele>61</ele>
        <time>2025-04-11T11:50:05Z</time>
      </trkpt>
      <trkpt lat="45.26214" lon="0.33905">
        <ele>60</ele>
        <time>2025-04-11T11:50:11Z</time>
      </trkpt>
      <trkpt lat="45.26197" lon="0.33943">
        <ele>59</ele>
        <time>2025-04-11T11:50:17Z</time>
      </trkpt>
      <trkpt lat="45.26189" lon="0.33962">
        <ele>59</ele>
        <time>2025-04-11T11:50:19Z</time>
      </trkpt>
      <trkpt lat="45.26172" lon="0.34007">
        <ele>58</ele>
        <time>2025-04-11T11:50:26Z</time>
      </trkpt>
      <trkpt lat="45.26153" lon="0.34068">
        <ele>59</ele>
        <time>2025-04-11T11:50:34Z</time>
      </trkpt>
      <trkpt lat="45.26135" lon="0.34146">
        <ele>60</ele>
        <time>2025-04-11T11:50:44Z</time>
      </trkpt>
      <trkpt lat="45.26128" lon="0.34189">
        <ele>61</ele>
        <time>2025-04-11T11:50:50Z</time>
      </trkpt>
      <trkpt lat="45.26127" lon="0.34205">
        <ele>61</ele>
        <time>2025-04-11T11:50:52Z</time>
      </trkpt>
      <trkpt lat="45.26125" lon="0.34222">
        <ele>61</ele>
        <time>2025-04-11T11:50:54Z</time>
      </trkpt>
      <trkpt lat="45.26125" lon="0.34246">
        <ele>61</ele>
        <time>2025-04-11T11:50:57Z</time>
      </trkpt>
      <trkpt lat="45.2612" lon="0.34278">
        <ele>61</ele>
        <time>2025-04-11T11:51:01Z</time>
      </trkpt>
      <trkpt lat="45.26116" lon="0.34282">
        <ele>61</ele>
        <time>2025-04-11T11:51:02Z</time>
      </trkpt>
      <trkpt lat="45.26115" lon="0.34285">
        <ele>61</ele>
        <time>2025-04-11T11:51:02Z</time>
      </trkpt>
      <trkpt lat="45.26109" lon="0.34286">
        <ele>61</ele>
        <time>2025-04-11T11:51:03Z</time>
      </trkpt>
      <trkpt lat="45.26101" lon="0.34287">
        <ele>61</ele>
        <time>2025-04-11T11:51:05Z</time>
      </trkpt>
      <trkpt lat="45.26056" lon="0.34285">
        <ele>61</ele>
        <time>2025-04-11T11:51:13Z</time>
      </trkpt>
      <trkpt lat="45.25963" lon="0.34288">
        <ele>61</ele>
        <time>2025-04-11T11:51:29Z</time>
      </trkpt>
      <trkpt lat="45.25926" lon="0.34288">
        <ele>61</ele>
        <time>2025-04-11T11:51:36Z</time>
      </trkpt>
      <trkpt lat="45.25798" lon="0.34291">
        <ele>63</ele>
        <time>2025-04-11T11:51:59Z</time>
      </trkpt>
      <trkpt lat="45.25768" lon="0.34292">
        <ele>62</ele>
        <time>2025-04-11T11:52:04Z</time>
      </trkpt>
      <trkpt lat="45.25716" lon="0.34293">
        <ele>62</ele>
        <time>2025-04-11T11:52:13Z</time>
      </trkpt>
      <trkpt lat="45.25694" lon="0.34291">
        <ele>61</ele>
        <time>2025-04-11T11:52:17Z</time>
      </trkpt>
      <trkpt lat="45.25678" lon="0.34287">
        <ele>61</ele>
        <time>2025-04-11T11:52:20Z</time>
      </trkpt>
      <trkpt lat="45.25661" lon="0.34277">
        <ele>61</ele>
        <time>2025-04-11T11:52:24Z</time>
      </trkpt>
      <trkpt lat="45.25619" lon="0.34247">
        <ele>63</ele>
        <time>2025-04-11T11:52:32Z</time>
      </trkpt>
      <trkpt lat="45.25604" lon="0.34234">
        <ele>63</ele>
        <time>2025-04-11T11:52:35Z</time>
      </trkpt>
      <trkpt lat="45.25517" lon="0.34169">
        <ele>65</ele>
        <time>2025-04-11T11:52:52Z</time>
      </trkpt>
      <trkpt lat="45.25506" lon="0.34162">
        <ele>65</ele>
        <time>2025-04-11T11:52:55Z</time>
      </trkpt>
      <trkpt lat="45.25473" lon="0.34135">
        <ele>66</ele>
        <time>2025-04-11T11:53:01Z</time>
      </trkpt>
      <trkpt lat="45.25463" lon="0.34114">
        <ele>67</ele>
        <time>2025-04-11T11:53:05Z</time>
      </trkpt>
      <trkpt lat="45.25464" lon="0.34109">
        <ele>67</ele>
        <time>2025-04-11T11:53:05Z</time>
      </trkpt>
      <trkpt lat="45.25464" lon="0.34104">
        <ele>67</ele>
        <time>2025-04-11T11:53:06Z</time>
      </trkpt>
      <trkpt lat="45.25462" lon="0.341">
        <ele>67</ele>
        <time>2025-04-11T11:53:06Z</time>
      </trkpt>
      <trkpt lat="45.25471" lon="0.34082">
        <ele>66</ele>
        <time>2025-04-11T11:53:09Z</time>
      </trkpt>
      <trkpt lat="45.25485" lon="0.3407">
        <ele>66</ele>
        <time>2025-04-11T11:53:12Z</time>
      </trkpt>
      <trkpt lat="45.2549" lon="0.34061">
        <ele>65</ele>
        <time>2025-04-11T11:53:14Z</time>
      </trkpt>
      <trkpt lat="45.25494" lon="0.34054">
        <ele>65</ele>
        <time>2025-04-11T11:53:15Z</time>
      </trkpt>
      <trkpt lat="45.255" lon="0.3404">
        <ele>64</ele>
        <time>2025-04-11T11:53:17Z</time>
      </trkpt>
      <trkpt lat="45.25508" lon="0.3401">
        <ele>64</ele>
        <time>2025-04-11T11:53:21Z</time>
      </trkpt>
      <trkpt lat="45.25514" lon="0.33979">
        <ele>64</ele>
        <time>2025-04-11T11:53:25Z</time>
      </trkpt>
      <trkpt lat="45.25514" lon="0.33975">
        <ele>64</ele>
        <time>2025-04-11T11:53:25Z</time>
      </trkpt>
      <trkpt lat="45.2553" lon="0.33897">
        <ele>65</ele>
        <time>2025-04-11T11:53:35Z</time>
      </trkpt>
      <trkpt lat="45.25547" lon="0.33807">
        <ele>67</ele>
        <time>2025-04-11T11:53:47Z</time>
      </trkpt>
      <trkpt lat="45.2555" lon="0.33787">
        <ele>67</ele>
        <time>2025-04-11T11:53:50Z</time>
      </trkpt>
      <trkpt lat="45.25551" lon="0.33766">
        <ele>68</ele>
        <time>2025-04-11T11:53:52Z</time>
      </trkpt>
      <trkpt lat="45.25547" lon="0.33741">
        <ele>68</ele>
        <time>2025-04-11T11:53:56Z</time>
      </trkpt>
      <trkpt lat="45.25542" lon="0.33708">
        <ele>69</ele>
        <time>2025-04-11T11:54:00Z</time>
      </trkpt>
      <trkpt lat="45.25539" lon="0.33679">
        <ele>69</ele>
        <time>2025-04-11T11:54:03Z</time>
      </trkpt>
      <trkpt lat="45.25536" lon="0.33672">
        <ele>70</ele>
        <time>2025-04-11T11:54:05Z</time>
      </trkpt>
      <trkpt lat="45.25531" lon="0.33668">
        <ele>70</ele>
        <time>2025-04-11T11:54:06Z</time>
      </trkpt>
      <trkpt lat="45.25452" lon="0.33655">
        <ele>70</ele>
        <time>2025-04-11T11:54:20Z</time>
      </trkpt>
      <trkpt lat="45.25438" lon="0.33651">
        <ele>69</ele>
        <time>2025-04-11T11:54:22Z</time>
      </trkpt>
      <trkpt lat="45.25317" lon="0.33631">
        <ele>71</ele>
        <time>2025-04-11T11:54:44Z</time>
      </trkpt>
      <trkpt lat="45.25296" lon="0.33629">
        <ele>72</ele>
        <time>2025-04-11T11:54:48Z</time>
      </trkpt>
      <trkpt lat="45.25271" lon="0.33624">
        <ele>72</ele>
        <time>2025-04-11T11:54:52Z</time>
      </trkpt>
      <trkpt lat="45.25249" lon="0.33621">
        <ele>72</ele>
        <time>2025-04-11T11:54:56Z</time>
      </trkpt>
      <trkpt lat="45.25125" lon="0.33602">
        <ele>72</ele>
        <time>2025-04-11T11:55:18Z</time>
      </trkpt>
      <trkpt lat="45.25116" lon="0.336">
        <ele>72</ele>
        <time>2025-04-11T11:55:20Z</time>
      </trkpt>
      <trkpt lat="45.25076" lon="0.33593">
        <ele>72</ele>
        <time>2025-04-11T11:55:27Z</time>
      </trkpt>
      <trkpt lat="45.25074" lon="0.33609">
        <ele>72</ele>
        <time>2025-04-11T11:55:29Z</time>
      </trkpt>
      <trkpt lat="45.25074" lon="0.33623">
        <ele>71</ele>
        <time>2025-04-11T11:55:31Z</time>
      </trkpt>
      <trkpt lat="45.25077" lon="0.33682">
        <ele>70</ele>
        <time>2025-04-11T11:55:38Z</time>
      </trkpt>
      <trkpt lat="45.25053" lon="0.33687">
        <ele>71</ele>
        <time>2025-04-11T11:55:43Z</time>
      </trkpt>
      <trkpt lat="45.25043" lon="0.33689">
        <ele>71</ele>
        <time>2025-04-11T11:55:44Z</time>
      </trkpt>
      <trkpt lat="45.2503" lon="0.33691">
        <ele>71</ele>
        <time>2025-04-11T11:55:47Z</time>
      </trkpt>
      <trkpt lat="45.25016" lon="0.33694">
        <ele>71</ele>
        <time>2025-04-11T11:55:49Z</time>
      </trkpt>
      <trkpt lat="45.25002" lon="0.33697">
        <ele>71</ele>
        <time>2025-04-11T11:55:52Z</time>
      </trkpt>
      <trkpt lat="45.24985" lon="0.337">
        <ele>72</ele>
        <time>2025-04-11T11:55:55Z</time>
      </trkpt>
      <trkpt lat="45.24966" lon="0.33704">
        <ele>72</ele>
        <time>2025-04-11T11:55:58Z</time>
      </trkpt>
      <trkpt lat="45.2496" lon="0.33705">
        <ele>72</ele>
        <time>2025-04-11T11:55:59Z</time>
      </trkpt>
      <trkpt lat="45.24959" lon="0.33698">
        <ele>72</ele>
        <time>2025-04-11T11:56:00Z</time>
      </trkpt>
      <trkpt lat="45.24971" lon="0.33696">
        <ele>72</ele>
        <time>2025-04-11T11:56:02Z</time>
      </trkpt>
    </trkseg>
  </trk>
</gpx>